Wetterdaten: Sonntag, 25.12.2022
Datum Zeit Temp. Aussen Temp. o. S. Temp +5cm Feuchte Auss Luftdruck Regen Sonnenschein Regendauer Solar Windben Empfang
25.12.2022 00:00 7,4 C 6,7 C 4,4 C 96 % 1015,5 hPa 0,0 l/m 0 min 0 min 0 W/m 6,4 km/h (2 Bft) 97,87 %
25.12.2022 00:02 7,4 C 6,7 C 4,4 C 96 % 1015,5 hPa 0,0 l/m 0 min 0 min 0 W/m 3,2 km/h (1 Bft) 94,87 %
25.12.2022 00:04 7,4 C 6,7 C 4,4 C 96 % 1015,4 hPa 0,0 l/m 0 min 0 min 0 W/m 3,2 km/h (1 Bft) 95,74 %
25.12.2022 00:08 7,4 C 6,1 C 4,4 C 96 % 1015,4 hPa 0,0 l/m 0 min 0 min 0 W/m 3,2 km/h (1 Bft) 95,70 %
25.12.2022 00:10 7,3 C 6,1 C 4,4 C 96 % 1015,4 hPa 0,0 l/m 0 min 0 min 0 W/m 3,2 km/h (1 Bft) 93,62 %
25.12.2022 00:12 7,3 C 6,1 C 4,4 C 96 % 1015,3 hPa 0,0 l/m 0 min 0 min 0 W/m 3,2 km/h (1 Bft) 93,62 %
25.12.2022 00:14 7,3 C 6,1 C 4,4 C 96 % 1015,3 hPa 0,0 l/m 0 min 0 min 0 W/m 0,0 km/h (0 Bft) 48,72 %
25.12.2022 00:16 7,3 C 6,1 C 4,4 C 96 % 1015,3 hPa 0,0 l/m 0 min 0 min 0 W/m 3,2 km/h (1 Bft) 91,49 %
25.12.2022 00:18 7,3 C 6,1 C 4,4 C 96 % 1015,3 hPa 0,0 l/m 0 min 0 min 0 W/m 3,2 km/h (1 Bft) 95,74 %
25.12.2022 00:20 7,3 C 6,1 C 4,4 C 96 % 1015,3 hPa 0,0 l/m 0 min 0 min 0 W/m 3,2 km/h (1 Bft) 93,62 %
25.12.2022 00:22 7,3 C 6,1 C 4,4 C 96 % 1015,3 hPa 0,0 l/m 0 min 0 min 0 W/m 3,2 km/h (1 Bft) 95,65 %
25.12.2022 00:24 7,3 C 6,1 C 4,4 C 96 % 1015,3 hPa 0,0 l/m 0 min 0 min 0 W/m 3,2 km/h (1 Bft) 91,49 %
25.12.2022 00:26 7,2 C 6,1 C 4,4 C 96 % 1015,4 hPa 0,0 l/m 0 min 0 min 0 W/m 3,2 km/h (1 Bft) 93,62 %
25.12.2022 00:28 7,2 C 6,1 C 4,4 C 96 % 1015,3 hPa 0,0 l/m 0 min 0 min 0 W/m 3,2 km/h (1 Bft) 95,74 %
25.12.2022 00:30 7,2 C 6,1 C 3,9 C 96 % 1015,4 hPa 0,0 l/m 0 min 0 min 0 W/m 3,2 km/h (1 Bft) 95,74 %
25.12.2022 00:32 7,2 C 6,1 C 3,9 C 96 % 1015,4 hPa 0,0 l/m 0 min 0 min 0 W/m 3,2 km/h (1 Bft) 91,49 %
25.12.2022 00:34 7,2 C 6,1 C 3,9 C 96 % 1015,5 hPa 0,0 l/m 0 min 0 min 0 W/m 3,2 km/h (1 Bft) 93,48 %
25.12.2022 00:36 7,1 C 6,1 C 3,9 C 96 % 1015,5 hPa 0,0 l/m 0 min 0 min 0 W/m 0,0 km/h (0 Bft) 95,74 %
25.12.2022 00:38 7,1 C 6,1 C 3,9 C 96 % 1015,5 hPa 0,0 l/m 0 min 0 min 0 W/m 3,2 km/h (1 Bft) 97,87 %
25.12.2022 00:40 7,1 C 6,1 C 3,9 C 96 % 1015,5 hPa 0,0 l/m 0 min 0 min 0 W/m 3,2 km/h (1 Bft) 100,00 %
25.12.2022 00:42 7,1 C 6,1 C 3,9 C 96 % 1015,5 hPa 0,0 l/m 0 min 0 min 0 W/m 3,2 km/h (1 Bft) 100,00 %
25.12.2022 00:44 7,1 C 6,1 C 3,9 C 96 % 1015,5 hPa 0,0 l/m 0 min 0 min 0 W/m 0,0 km/h (0 Bft) 97,87 %
25.12.2022 00:46 7,1 C 6,1 C 3,9 C 96 % 1015,5 hPa 0,0 l/m 0 min 0 min 0 W/m 3,2 km/h (1 Bft) 100,00 %
25.12.2022 00:48 7,0 C 6,1 C 3,9 C 96 % 1015,5 hPa 0,0 l/m 0 min 0 min 0 W/m 0,0 km/h (0 Bft) 100,00 %
25.12.2022 00:50 7,0 C 6,1 C 3,9 C 96 % 1015,6 hPa 0,0 l/m 0 min 0 min 0 W/m 0,0 km/h (0 Bft) 100,00 %
25.12.2022 00:52 7,0 C 6,1 C 3,9 C 96 % 1015,6 hPa 0,0 l/m 0 min 0 min 0 W/m 0,0 km/h (0 Bft) 100,00 %
25.12.2022 00:54 6,9 C 6,1 C 3,9 C 96 % 1015,7 hPa 0,0 l/m 0 min 0 min 0 W/m 0,0 km/h (0 Bft) 100,00 %
25.12.2022 00:56 6,9 C 6,1 C 3,9 C 96 % 1015,7 hPa 0,0 l/m 0 min 0 min 0 W/m 0,0 km/h (0 Bft) 100,00 %
25.12.2022 00:58 6,9 C 6,1 C 3,9 C 96 % 1015,7 hPa 0,0 l/m 0 min 0 min 0 W/m 0,0 km/h (0 Bft) 97,87 %
25.12.2022 01:00 6,9 C 6,1 C 3,9 C 96 % 1015,7 hPa 0,0 l/m 0 min 0 min 0 W/m 0,0 km/h (0 Bft) 97,83 %
25.12.2022 01:02 6,9 C 6,1 C 3,9 C 96 % 1015,7 hPa 0,0 l/m 0 min 0 min 0 W/m 0,0 km/h (0 Bft) 97,87 %
25.12.2022 01:04 6,9 C 6,1 C 3,9 C 96 % 1015,7 hPa 0,0 l/m 0 min 0 min 0 W/m 0,0 km/h (0 Bft) 100,00 %
25.12.2022 01:06 6,9 C 6,1 C 3,9 C 96 % 1015,7 hPa 0,0 l/m 0 min 0 min 0 W/m 3,2 km/h (1 Bft) 100,00 %
25.12.2022 01:08 6,9 C 6,1 C 3,9 C 96 % 1015,7 hPa 0,0 l/m 0 min 0 min 0 W/m 3,2 km/h (1 Bft) 97,87 %
25.12.2022 01:10 6,9 C 6,1 C 3,9 C 96 % 1015,6 hPa 0,0 l/m 0 min 0 min 0 W/m 3,2 km/h (1 Bft) 100,00 %
25.12.2022 01:12 6,9 C 6,1 C 3,9 C 96 % 1015,6 hPa 0,0 l/m 0 min 0 min 0 W/m 3,2 km/h (1 Bft) 100,00 %
25.12.2022 01:14 6,9 C 6,1 C 4,4 C 96 % 1015,6 hPa 0,0 l/m 0 min 0 min 0 W/m 3,2 km/h (1 Bft) 97,87 %
25.12.2022 01:16 6,9 C 6,1 C 4,4 C 96 % 1015,6 hPa 0,0 l/m 0 min 0 min 0 W/m 3,2 km/h (1 Bft) 100,00 %
25.12.2022 01:18 6,9 C 6,1 C 4,4 C 96 % 1015,6 hPa 0,0 l/m 0 min 0 min 0 W/m 0,0 km/h (0 Bft) 100,00 %
25.12.2022 01:20 6,9 C 6,1 C 4,4 C 96 % 1015,6 hPa 0,0 l/m 0 min 0 min 0 W/m 0,0 km/h (0 Bft) 100,00 %
25.12.2022 01:22 6,9 C 6,1 C 4,4 C 96 % 1015,6 hPa 0,0 l/m 0 min 0 min 0 W/m 0,0 km/h (0 Bft) 97,87 %
25.12.2022 01:24 6,9 C 6,1 C 4,4 C 96 % 1015,6 hPa 0,0 l/m 0 min 0 min 0 W/m 3,2 km/h (1 Bft) 97,83 %
25.12.2022 01:26 6,9 C 6,1 C 4,4 C 96 % 1015,6 hPa 0,0 l/m 0 min 0 min 0 W/m 6,4 km/h (2 Bft) 100,00 %
25.12.2022 01:28 6,9 C 6,1 C 4,4 C 96 % 1015,6 hPa 0,0 l/m 0 min 0 min 0 W/m 6,4 km/h (2 Bft) 97,87 %
25.12.2022 01:30 6,9 C 6,1 C 4,4 C 96 % 1015,6 hPa 0,0 l/m 0 min 0 min 0 W/m 6,4 km/h (2 Bft) 97,87 %
25.12.2022 01:32 6,9 C 6,7 C 4,4 C 96 % 1015,6 hPa 0,0 l/m 0 min 0 min 0 W/m 3,2 km/h (1 Bft) 93,62 %
25.12.2022 01:34 6,9 C 6,7 C 4,4 C 96 % 1015,6 hPa 0,0 l/m 0 min 0 min 0 W/m 0,0 km/h (0 Bft) 91,49 %
25.12.2022 01:36 6,9 C 6,7 C 4,4 C 96 % 1015,6 hPa 0,0 l/m 0 min 0 min 0 W/m 0,0 km/h (0 Bft) 65,96 %
25.12.2022 01:38 7,0 C 6,7 C 4,4 C 96 % 1015,6 hPa 0,0 l/m 0 min 0 min 0 W/m 0,0 km/h (0 Bft) 82,61 %
25.12.2022 01:40 7,0 C 6,7 C 4,4 C 96 % 1015,6 hPa 0,0 l/m 0 min 0 min 0 W/m 3,2 km/h (1 Bft) 82,98 %
25.12.2022 01:42 7,0 C 6,7 C 4,4 C 96 % 1015,6 hPa 0,0 l/m 0 min 0 min 0 W/m 3,2 km/h (1 Bft) 93,62 %
25.12.2022 01:44 7,0 C 6,7 C 4,4 C 97 % 1015,6 hPa 0,0 l/m 0 min 0 min 0 W/m 3,2 km/h (1 Bft) 97,87 %
25.12.2022 01:46 7,1 C 6,7 C 4,4 C 97 % 1015,6 hPa 0,0 l/m 0 min 0 min 0 W/m 6,4 km/h (2 Bft) 93,62 %
25.12.2022 01:48 7,1 C 6,7 C 4,4 C 97 % 1015,5 hPa 0,0 l/m 0 min 0 min 0 W/m 3,2 km/h (1 Bft) 97,87 %
25.12.2022 01:50 7,1 C 6,7 C 4,4 C 96 % 1015,5 hPa 0,0 l/m 0 min 0 min 0 W/m 6,4 km/h (2 Bft) 97,83 %
25.12.2022 01:52 7,1 C 6,7 C 4,4 C 96 % 1015,5 hPa 0,0 l/m 0 min 0 min 0 W/m 12,9 km/h (3 Bft) 93,62 %
25.12.2022 01:54 7,1 C 6,7 C 4,4 C 96 % 1015,5 hPa 0,0 l/m 0 min 0 min 0 W/m 6,4 km/h (2 Bft) 93,62 %
25.12.2022 01:56 7,1 C 6,7 C 4,4 C 97 % 1015,6 hPa 0,0 l/m 0 min 0 min 0 W/m 6,4 km/h (2 Bft) 95,74 %
25.12.2022 01:58 7,1 C 6,7 C 4,4 C 97 % 1015,6 hPa 0,0 l/m 0 min 0 min 0 W/m 3,2 km/h (1 Bft) 95,74 %
25.12.2022 02:00 7,1 C 6,7 C 4,4 C 97 % 1015,6 hPa 0,0 l/m 0 min 0 min 0 W/m 6,4 km/h (2 Bft) 95,74 %
25.12.2022 02:02 7,2 C 6,7 C 4,4 C 97 % 1015,6 hPa 0,0 l/m 0 min 0 min 0 W/m 6,4 km/h (2 Bft) 93,48 %
25.12.2022 02:04 7,2 C 6,7 C 4,4 C 97 % 1015,5 hPa 0,0 l/m 0 min 0 min 0 W/m 3,2 km/h (1 Bft) 95,74 %
25.12.2022 02:06 7,2 C 6,7 C 4,4 C 97 % 1015,5 hPa 0,0 l/m 0 min 0 min 0 W/m 3,2 km/h (1 Bft) 95,74 %
25.12.2022 02:08 7,2 C 6,7 C 4,4 C 97 % 1015,6 hPa 0,0 l/m 0 min 0 min 0 W/m 6,4 km/h (2 Bft) 95,74 %
25.12.2022 02:10 7,2 C 6,7 C 4,4 C 97 % 1015,6 hPa 0,0 l/m 0 min 0 min 0 W/m 6,4 km/h (2 Bft) 91,49 %
25.12.2022 02:12 7,2 C 6,7 C 4,4 C 97 % 1015,6 hPa 0,0 l/m 0 min 0 min 0 W/m 3,2 km/h (1 Bft) 93,62 %
25.12.2022 02:14 7,2 C 6,7 C 4,4 C 97 % 1015,6 hPa 0,0 l/m 0 min 0 min 0 W/m 3,2 km/h (1 Bft) 95,74 %
25.12.2022 02:16 7,3 C 6,7 C 4,4 C 97 % 1015,6 hPa 0,0 l/m 0 min 0 min 0 W/m 0,0 km/h (0 Bft) 95,65 %
25.12.2022 02:18 7,3 C 6,7 C 4,4 C 97 % 1015,6 hPa 0,0 l/m 0 min 0 min 0 W/m 3,2 km/h (1 Bft) 91,49 %
25.12.2022 02:20 7,3 C 6,7 C 4,4 C 97 % 1015,5 hPa 0,0 l/m 0 min 0 min 0 W/m 6,4 km/h (2 Bft) 91,49 %
25.12.2022 02:22 7,3 C 6,7 C 4,4 C 97 % 1015,5 hPa 0,0 l/m 0 min 0 min 0 W/m 3,2 km/h (1 Bft) 89,36 %
25.12.2022 02:24 7,3 C 6,7 C 5,0 C 97 % 1015,5 hPa 0,0 l/m 0 min 0 min 0 W/m 3,2 km/h (1 Bft) 93,62 %
25.12.2022 02:26 7,3 C 6,7 C 5,0 C 97 % 1015,5 hPa 0,0 l/m 0 min 0 min 0 W/m 6,4 km/h (2 Bft) 91,49 %
25.12.2022 02:28 7,3 C 6,7 C 5,0 C 97 % 1015,5 hPa 0,0 l/m 0 min 0 min 0 W/m 6,4 km/h (2 Bft) 93,48 %
25.12.2022 02:30 7,3 C 6,7 C 5,0 C 97 % 1015,4 hPa 0,0 l/m 0 min 0 min 0 W/m 3,2 km/h (1 Bft) 97,87 %
25.12.2022 02:32 7,4 C 6,7 C 5,0 C 97 % 1015,5 hPa 0,0 l/m 0 min 0 min 0 W/m 12,9 km/h (3 Bft) 95,74 %
25.12.2022 02:34 7,4 C 6,7 C 5,0 C 97 % 1015,5 hPa 0,0 l/m 0 min 0 min 0 W/m 6,4 km/h (2 Bft) 97,87 %
25.12.2022 02:36 7,4 C 6,7 C 5,0 C 97 % 1015,4 hPa 0,0 l/m 0 min 0 min 0 W/m 3,2 km/h (1 Bft) 93,62 %
25.12.2022 02:38 7,4 C 7,2 C 5,0 C 97 % 1015,4 hPa 0,0 l/m 0 min 0 min 0 W/m 12,9 km/h (3 Bft) 93,62 %
25.12.2022 02:40 7,4 C 7,2 C 5,0 C 97 % 1015,4 hPa 0,0 l/m 0 min 0 min 0 W/m 6,4 km/h (2 Bft) 97,87 %
25.12.2022 02:42 7,4 C 7,2 C 5,0 C 97 % 1015,4 hPa 0,0 l/m 0 min 0 min 0 W/m 6,4 km/h (2 Bft) 95,65 %
25.12.2022 02:44 7,4 C 7,2 C 5,0 C 97 % 1015,4 hPa 0,0 l/m 0 min 0 min 0 W/m 6,4 km/h (2 Bft) 97,87 %
25.12.2022 02:46 7,5 C 7,2 C 5,0 C 97 % 1015,4 hPa 0,0 l/m 0 min 0 min 0 W/m 12,9 km/h (3 Bft) 95,74 %
25.12.2022 02:48 7,5 C 7,2 C 5,0 C 97 % 1015,4 hPa 0,0 l/m 0 min 0 min 0 W/m 9,7 km/h (2 Bft) 97,87 %
25.12.2022 02:50 7,6 C 7,2 C 5,0 C 97 % 1015,4 hPa 0,0 l/m 0 min 0 min 0 W/m 6,4 km/h (2 Bft) 95,74 %
25.12.2022 02:52 7,5 C 7,2 C 5,0 C 97 % 1015,4 hPa 0,0 l/m 0 min 0 min 0 W/m 6,4 km/h (2 Bft) 93,62 %
25.12.2022 02:54 7,6 C 7,2 C 5,0 C 97 % 1015,5 hPa 0,0 l/m 0 min 0 min 0 W/m 16,1 km/h (3 Bft) 95,65 %
25.12.2022 02:56 7,6 C 7,2 C 5,0 C 97 % 1015,5 hPa 0,0 l/m 0 min 0 min 0 W/m 12,9 km/h (3 Bft) 93,62 %
25.12.2022 02:58 7,6 C 7,2 C 5,0 C 97 % 1015,5 hPa 0,0 l/m 0 min 0 min 0 W/m 6,4 km/h (2 Bft) 97,87 %
25.12.2022 03:00 7,6 C 7,2 C 5,0 C 97 % 1015,5 hPa 0,0 l/m 0 min 0 min 0 W/m 3,2 km/h (1 Bft) 95,74 %
25.12.2022 03:02 7,6 C 7,2 C 5,0 C 97 % 1015,6 hPa 0,0 l/m 0 min 0 min 0 W/m 12,9 km/h (3 Bft) 95,74 %
25.12.2022 03:04 7,6 C 7,2 C 5,0 C 97 % 1015,6 hPa 0,0 l/m 0 min 0 min 0 W/m 6,4 km/h (2 Bft) 97,87 %
25.12.2022 03:06 7,6 C 7,2 C 5,0 C 97 % 1015,7 hPa 0,0 l/m 0 min 0 min 0 W/m 12,9 km/h (3 Bft) 97,87 %
25.12.2022 03:08 7,7 C 7,2 C 5,0 C 97 % 1015,7 hPa 0,0 l/m 0 min 0 min 0 W/m 6,4 km/h (2 Bft) 97,83 %
25.12.2022 03:10 7,7 C 7,2 C 5,0 C 97 % 1015,7 hPa 0,0 l/m 0 min 0 min 0 W/m 6,4 km/h (2 Bft) 97,87 %
25.12.2022 03:12 7,7 C 7,2 C 5,0 C 97 % 1015,7 hPa 0,0 l/m 0 min 0 min 0 W/m 6,4 km/h (2 Bft) 100,00 %
25.12.2022 03:14 7,7 C 7,2 C 5,0 C 97 % 1015,7 hPa 0,0 l/m 0 min 0 min 0 W/m 3,2 km/h (1 Bft) 100,00 %
25.12.2022 03:16 7,7 C 7,2 C 5,0 C 97 % 1015,7 hPa 0,0 l/m 0 min 0 min 0 W/m 6,4 km/h (2 Bft) 100,00 %
25.12.2022 03:18 7,7 C 7,2 C 5,0 C 97 % 1015,7 hPa 0,0 l/m 0 min 0 min 0 W/m 6,4 km/h (2 Bft) 97,87 %
25.12.2022 03:20 7,7 C 7,2 C 5,0 C 97 % 1015,6 hPa 0,0 l/m 0 min 0 min 0 W/m 6,4 km/h (2 Bft) 97,83 %
25.12.2022 03:22 7,8 C 7,2 C 5,0 C 97 % 1015,7 hPa 0,0 l/m 0 min 0 min 0 W/m 6,4 km/h (2 Bft) 100,00 %
25.12.2022 03:24 7,8 C 7,2 C 5,0 C 97 % 1015,7 hPa 0,0 l/m 0 min 0 min 0 W/m 12,9 km/h (3 Bft) 97,87 %
25.12.2022 03:26 7,8 C 7,2 C 5,0 C 97 % 1015,7 hPa 0,0 l/m 0 min 0 min 0 W/m 12,9 km/h (3 Bft) 97,87 %
25.12.2022 03:28 7,8 C 7,2 C 5,0 C 97 % 1015,7 hPa 0,0 l/m 0 min 0 min 0 W/m 6,4 km/h (2 Bft) 97,87 %
25.12.2022 03:30 7,8 C 7,2 C 5,0 C 97 % 1015,7 hPa 0,0 l/m 0 min 0 min 0 W/m 9,7 km/h (2 Bft) 97,87 %
25.12.2022 03:32 7,8 C 7,2 C 5,0 C 97 % 1015,8 hPa 0,0 l/m 0 min 0 min 0 W/m 6,4 km/h (2 Bft) 100,00 %
25.12.2022 03:34 7,8 C 7,2 C 5,0 C 97 % 1015,7 hPa 0,0 l/m 0 min 0 min 0 W/m 6,4 km/h (2 Bft) 95,65 %
25.12.2022 03:36 7,8 C 7,2 C 5,0 C 97 % 1015,7 hPa 0,0 l/m 0 min 0 min 0 W/m 3,2 km/h (1 Bft) 96,97 %
25.12.2022 03:38 7,8 C 7,2 C 5,0 C 97 % 1015,7 hPa 0,0 l/m 0 min 0 min 0 W/m 6,4 km/h (2 Bft) 97,87 %
25.12.2022 03:40 7,8 C 7,2 C 5,0 C 97 % 1015,7 hPa 0,0 l/m 0 min 0 min 0 W/m 6,4 km/h (2 Bft) 100,00 %
25.12.2022 03:42 7,8 C 7,2 C 5,0 C 97 % 1015,7 hPa 0,0 l/m 0 min 0 min 0 W/m 6,4 km/h (2 Bft) 97,87 %
25.12.2022 03:44 7,8 C 7,2 C 5,0 C 97 % 1015,7 hPa 0,0 l/m 0 min 0 min 0 W/m 6,4 km/h (2 Bft) 97,87 %
25.12.2022 03:46 7,8 C 7,2 C 5,0 C 97 % 1015,7 hPa 0,0 l/m 0 min 0 min 0 W/m 6,4 km/h (2 Bft) 97,83 %
25.12.2022 03:48 7,8 C 7,2 C 5,0 C 97 % 1015,7 hPa 0,0 l/m 0 min 0 min 0 W/m 6,4 km/h (2 Bft) 95,74 %
25.12.2022 03:50 7,8 C 7,2 C 5,0 C 97 % 1015,7 hPa 0,0 l/m 0 min 0 min 0 W/m 6,4 km/h (2 Bft) 97,87 %
25.12.2022 03:52 7,8 C 7,2 C 5,0 C 97 % 1015,6 hPa 0,0 l/m 0 min 0 min 0 W/m 6,4 km/h (2 Bft) 95,74 %
25.12.2022 03:54 7,8 C 7,2 C 5,0 C 97 % 1015,7 hPa 0,0 l/m 0 min 0 min 0 W/m 6,4 km/h (2 Bft) 97,87 %
25.12.2022 03:56 7,8 C 7,2 C 5,0 C 97 % 1015,7 hPa 0,0 l/m 0 min 0 min 0 W/m 6,4 km/h (2 Bft) 97,87 %
25.12.2022 03:58 7,8 C 7,2 C 5,0 C 97 % 1015,8 hPa 0,0 l/m 0 min 0 min 0 W/m 6,4 km/h (2 Bft) 95,65 %
25.12.2022 04:00 7,8 C 7,2 C 5,0 C 97 % 1015,7 hPa 0,0 l/m 0 min 0 min 0 W/m 3,2 km/h (1 Bft) 95,74 %
25.12.2022 04:05 7,8 C 7,2 C 5,0 C 97 % 1015,7 hPa 0,0 l/m 0 min 0 min 0 W/m 6,4 km/h (2 Bft) 100,00 %
25.12.2022 04:06 7,8 C 7,2 C 5,0 C 97 % 1015,7 hPa 0,0 l/m 0 min 0 min 0 W/m 3,2 km/h (1 Bft) 95,83 %
25.12.2022 04:08 7,8 C 7,2 C 5,0 C 97 % 1015,6 hPa 0,0 l/m 0 min 0 min 0 W/m 6,4 km/h (2 Bft) 100,00 %
25.12.2022 04:10 7,8 C 7,2 C 5,0 C 97 % 1015,7 hPa 0,0 l/m 0 min 0 min 0 W/m 3,2 km/h (1 Bft) 97,87 %
25.12.2022 04:12 7,8 C 7,2 C 5,0 C 97 % 1015,6 hPa 0,0 l/m 0 min 0 min 0 W/m 6,4 km/h (2 Bft) 95,65 %
25.12.2022 04:14 7,8 C 7,2 C 5,0 C 97 % 1015,6 hPa 0,0 l/m 0 min 0 min 0 W/m 12,9 km/h (3 Bft) 97,87 %
25.12.2022 04:16 7,8 C 7,2 C 5,0 C 97 % 1015,5 hPa 0,0 l/m 0 min 0 min 0 W/m 6,4 km/h (2 Bft) 42,86 %
25.12.2022 04:18 7,8 C 7,2 C 5,0 C 97 % 1015,5 hPa 0,0 l/m 0 min 0 min 0 W/m 6,4 km/h (2 Bft) 97,78 %
25.12.2022 04:20 7,8 C 7,2 C 5,0 C 97 % 1015,4 hPa 0,0 l/m 0 min 0 min 0 W/m 12,9 km/h (3 Bft) 97,87 %
25.12.2022 04:22 7,8 C 7,2 C 5,0 C 97 % 1015,5 hPa 0,0 l/m 0 min 0 min 0 W/m 9,7 km/h (2 Bft) 100,00 %
25.12.2022 04:24 7,8 C 7,2 C 5,0 C 97 % 1015,5 hPa 0,0 l/m 0 min 0 min 0 W/m 9,7 km/h (2 Bft) 97,83 %
25.12.2022 04:26 7,8 C 7,2 C 5,0 C 97 % 1015,5 hPa 0,0 l/m 0 min 0 min 0 W/m 6,4 km/h (2 Bft) 100,00 %
25.12.2022 04:28 7,8 C 7,2 C 5,0 C 97 % 1015,5 hPa 0,0 l/m 0 min 0 min 0 W/m 6,4 km/h (2 Bft) 100,00 %
25.12.2022 04:30 7,8 C 7,2 C 5,0 C 97 % 1015,5 hPa 0,0 l/m 0 min 0 min 0 W/m 6,4 km/h (2 Bft) 97,87 %
25.12.2022 04:32 7,9 C 7,2 C 5,0 C 97 % 1015,4 hPa 0,0 l/m 0 min 0 min 0 W/m 9,7 km/h (2 Bft) 100,00 %
25.12.2022 04:34 7,9 C 7,2 C 5,0 C 97 % 1015,4 hPa 0,0 l/m 0 min 0 min 0 W/m 6,4 km/h (2 Bft) 100,00 %
25.12.2022 04:36 7,9 C 7,2 C 5,0 C 97 % 1015,3 hPa 0,0 l/m 0 min 0 min 0 W/m 3,2 km/h (1 Bft) 100,00 %
25.12.2022 04:38 7,9 C 7,2 C 5,0 C 97 % 1015,2 hPa 0,0 l/m 0 min 0 min 0 W/m 3,2 km/h (1 Bft) 95,74 %
25.12.2022 04:40 7,9 C 7,2 C 5,0 C 97 % 1015,2 hPa 0,0 l/m 0 min 0 min 0 W/m 6,4 km/h (2 Bft) 95,74 %
25.12.2022 04:42 7,9 C 7,2 C 5,0 C 97 % 1015,2 hPa 0,0 l/m 0 min 0 min 0 W/m 3,2 km/h (1 Bft) 97,87 %
25.12.2022 04:44 7,9 C 7,2 C 5,0 C 97 % 1015,1 hPa 0,0 l/m 0 min 0 min 0 W/m 6,4 km/h (2 Bft) 97,87 %
25.12.2022 04:46 7,9 C 7,2 C 5,0 C 97 % 1015,1 hPa 0,0 l/m 0 min 0 min 0 W/m 6,4 km/h (2 Bft) 91,49 %
25.12.2022 04:48 7,9 C 7,2 C 5,0 C 97 % 1015,0 hPa 0,0 l/m 0 min 0 min 0 W/m 6,4 km/h (2 Bft) 95,74 %
25.12.2022 04:50 7,9 C 7,2 C 5,0 C 97 % 1014,9 hPa 0,0 l/m 0 min 0 min 0 W/m 6,4 km/h (2 Bft) 95,65 %
25.12.2022 04:52 7,9 C 7,2 C 5,0 C 97 % 1014,8 hPa 0,0 l/m 0 min 0 min 0 W/m 6,4 km/h (2 Bft) 95,74 %
25.12.2022 04:54 7,9 C 7,2 C 5,0 C 97 % 1014,8 hPa 0,0 l/m 0 min 0 min 0 W/m 6,4 km/h (2 Bft) 97,87 %
25.12.2022 04:56 7,9 C 7,2 C 5,0 C 97 % 1014,8 hPa 0,0 l/m 0 min 0 min 0 W/m 3,2 km/h (1 Bft) 95,74 %
25.12.2022 04:58 7,9 C 7,2 C 5,0 C 97 % 1014,9 hPa 0,0 l/m 0 min 0 min 0 W/m 6,4 km/h (2 Bft) 95,74 %
25.12.2022 05:00 7,9 C 7,2 C 5,0 C 97 % 1014,9 hPa 0,0 l/m 0 min 0 min 0 W/m 6,4 km/h (2 Bft) 93,62 %
25.12.2022 05:02 7,9 C 7,2 C 5,0 C 97 % 1014,9 hPa 0,0 l/m 0 min 0 min 0 W/m 16,1 km/h (3 Bft) 95,65 %
25.12.2022 05:04 7,9 C 7,2 C 5,0 C 97 % 1014,9 hPa 0,0 l/m 0 min 0 min 0 W/m 16,1 km/h (3 Bft) 93,62 %
25.12.2022 05:06 7,9 C 7,2 C 5,0 C 97 % 1014,9 hPa 0,0 l/m 0 min 0 min 0 W/m 6,4 km/h (2 Bft) 95,74 %
25.12.2022 05:08 7,9 C 7,2 C 5,0 C 97 % 1014,9 hPa 0,0 l/m 0 min 0 min 0 W/m 12,9 km/h (3 Bft) 93,62 %
25.12.2022 05:10 7,9 C 7,2 C 5,0 C 97 % 1015,0 hPa 0,0 l/m 0 min 0 min 0 W/m 3,2 km/h (1 Bft) 93,62 %
25.12.2022 05:12 7,9 C 7,2 C 5,0 C 97 % 1015,0 hPa 0,0 l/m 0 min 0 min 0 W/m 6,4 km/h (2 Bft) 95,74 %
25.12.2022 05:14 7,9 C 7,2 C 5,0 C 97 % 1015,0 hPa 0,0 l/m 0 min 0 min 0 W/m 12,9 km/h (3 Bft) 95,74 %
25.12.2022 05:16 8,0 C 7,2 C 5,6 C 97 % 1015,1 hPa 0,0 l/m 0 min 0 min 0 W/m 6,4 km/h (2 Bft) 95,65 %
25.12.2022 05:18 7,9 C 7,2 C 5,0 C 97 % 1015,0 hPa 0,0 l/m 0 min 0 min 0 W/m 9,7 km/h (2 Bft) 95,74 %
25.12.2022 05:20 7,9 C 7,2 C 5,6 C 97 % 1014,9 hPa 0,0 l/m 0 min 0 min 0 W/m 12,9 km/h (3 Bft) 95,74 %
25.12.2022 05:22 8,0 C 7,2 C 5,6 C 97 % 1014,9 hPa 0,0 l/m 0 min 0 min 0 W/m 6,4 km/h (2 Bft) 93,62 %
25.12.2022 05:24 8,0 C 7,2 C 5,6 C 97 % 1015,0 hPa 0,0 l/m 0 min 0 min 0 W/m 6,4 km/h (2 Bft) 93,62 %
25.12.2022 05:26 8,0 C 7,2 C 5,6 C 97 % 1014,9 hPa 0,0 l/m 0 min 0 min 0 W/m 12,9 km/h (3 Bft) 97,87 %
25.12.2022 05:28 8,0 C 7,2 C 5,6 C 97 % 1014,9 hPa 0,0 l/m 0 min 0 min 0 W/m 9,7 km/h (2 Bft) 95,65 %
25.12.2022 05:30 8,0 C 7,2 C 5,6 C 97 % 1014,9 hPa 0,0 l/m 0 min 0 min 0 W/m 6,4 km/h (2 Bft) 97,87 %
25.12.2022 05:32 8,0 C 7,2 C 5,6 C 97 % 1014,9 hPa 0,0 l/m 0 min 0 min 0 W/m 12,9 km/h (3 Bft) 97,87 %
25.12.2022 05:34 8,1 C 7,2 C 5,6 C 97 % 1014,9 hPa 0,0 l/m 0 min 0 min 0 W/m 6,4 km/h (2 Bft) 93,62 %
25.12.2022 05:36 8,1 C 7,2 C 5,6 C 97 % 1014,9 hPa 0,0 l/m 0 min 0 min 0 W/m 9,7 km/h (2 Bft) 93,62 %
25.12.2022 05:38 8,1 C 7,2 C 5,6 C 97 % 1014,9 hPa 0,0 l/m 0 min 0 min 0 W/m 3,2 km/h (1 Bft) 93,62 %
25.12.2022 05:40 8,1 C 7,2 C 5,6 C 97 % 1014,8 hPa 0,0 l/m 0 min 0 min 0 W/m 12,9 km/h (3 Bft) 100,00 %
25.12.2022 05:42 8,1 C 7,2 C 5,6 C 97 % 1014,8 hPa 0,0 l/m 0 min 0 min 0 W/m 6,4 km/h (2 Bft) 97,83 %
25.12.2022 05:44 8,1 C 7,2 C 5,6 C 97 % 1014,8 hPa 0,0 l/m 0 min 0 min 0 W/m 12,9 km/h (3 Bft) 97,87 %
25.12.2022 05:46 8,1 C 7,2 C 5,6 C 97 % 1014,8 hPa 0,0 l/m 0 min 0 min 0 W/m 16,1 km/h (3 Bft) 98,08 %
25.12.2022 05:48 8,1 C 7,2 C 5,6 C 97 % 1014,8 hPa 0,0 l/m 0 min 0 min 0 W/m 12,9 km/h (3 Bft) 97,78 %
25.12.2022 05:50 8,1 C 7,2 C 5,6 C 97 % 1014,8 hPa 0,0 l/m 0 min 0 min 0 W/m 12,9 km/h (3 Bft) 97,87 %
25.12.2022 05:52 8,1 C 7,8 C 5,6 C 97 % 1014,8 hPa 0,0 l/m 0 min 0 min 0 W/m 6,4 km/h (2 Bft) 97,83 %
25.12.2022 05:54 8,1 C 7,8 C 5,6 C 97 % 1014,8 hPa 0,0 l/m 0 min 0 min 0 W/m 9,7 km/h (2 Bft) 97,87 %
25.12.2022 05:56 8,1 C 7,8 C 5,6 C 97 % 1014,8 hPa 0,0 l/m 0 min 0 min 0 W/m 12,9 km/h (3 Bft) 95,74 %
25.12.2022 05:58 8,1 C 7,8 C 5,6 C 97 % 1014,8 hPa 0,0 l/m 0 min 0 min 0 W/m 9,7 km/h (2 Bft) 97,87 %
25.12.2022 06:00 8,1 C 7,8 C 5,6 C 97 % 1014,9 hPa 0,0 l/m 0 min 0 min 0 W/m 6,4 km/h (2 Bft) 95,74 %
25.12.2022 06:02 8,2 C 7,8 C 5,6 C 97 % 1014,9 hPa 0,0 l/m 0 min 0 min 0 W/m 12,9 km/h (3 Bft) 97,87 %
25.12.2022 06:04 8,2 C 7,8 C 5,6 C 97 % 1014,9 hPa 0,0 l/m 0 min 0 min 0 W/m 6,4 km/h (2 Bft) 93,62 %
25.12.2022 06:08 8,2 C 7,8 C 5,6 C 97 % 1014,8 hPa 0,0 l/m 0 min 0 min 0 W/m 12,9 km/h (3 Bft) 96,77 %
25.12.2022 06:10 8,2 C 7,8 C 5,6 C 97 % 1014,9 hPa 0,0 l/m 0 min 0 min 0 W/m 6,4 km/h (2 Bft) 97,87 %
25.12.2022 06:12 8,2 C 7,8 C 5,6 C 97 % 1014,8 hPa 0,0 l/m 0 min 0 min 0 W/m 6,4 km/h (2 Bft) 97,87 %
25.12.2022 06:14 8,2 C 7,8 C 5,6 C 97 % 1014,8 hPa 0,0 l/m 0 min 0 min 0 W/m 6,4 km/h (2 Bft) 95,74 %
25.12.2022 06:16 8,2 C 7,8 C 5,6 C 97 % 1014,7 hPa 0,0 l/m 0 min 0 min 0 W/m 9,7 km/h (2 Bft) 100,00 %
25.12.2022 06:18 8,2 C 7,8 C 5,6 C 97 % 1014,8 hPa 0,0 l/m 0 min 0 min 0 W/m 6,4 km/h (2 Bft) 100,00 %
25.12.2022 06:20 8,2 C 7,8 C 5,6 C 97 % 1014,7 hPa 0,0 l/m 0 min 0 min 0 W/m 6,4 km/h (2 Bft) 97,87 %
25.12.2022 06:22 8,2 C 7,8 C 5,6 C 97 % 1014,8 hPa 0,0 l/m 0 min 0 min 0 W/m 6,4 km/h (2 Bft) 100,00 %
25.12.2022 06:24 8,2 C 7,8 C 5,6 C 97 % 1014,8 hPa 0,0 l/m 0 min 0 min 0 W/m 6,4 km/h (2 Bft) 100,00 %
25.12.2022 06:26 8,2 C 7,8 C 5,6 C 97 % 1014,7 hPa 0,0 l/m 0 min 0 min 0 W/m 6,4 km/h (2 Bft) 100,00 %
25.12.2022 06:28 8,2 C 7,8 C 5,6 C 97 % 1014,6 hPa 0,0 l/m 0 min 0 min 0 W/m 6,4 km/h (2 Bft) 97,87 %
25.12.2022 06:30 8,2 C 7,8 C 5,6 C 97 % 1014,6 hPa 0,0 l/m 0 min 0 min 0 W/m 6,4 km/h (2 Bft) 89,83 %
25.12.2022 06:32 8,2 C 7,8 C 5,6 C 97 % 1014,6 hPa 0,0 l/m 0 min 0 min 0 W/m 0,0 km/h (0 Bft) 95,65 %
25.12.2022 06:34 8,2 C 7,8 C 5,6 C 97 % 1014,5 hPa 0,0 l/m 0 min 0 min 0 W/m 0,0 km/h (0 Bft) 100,00 %
25.12.2022 06:36 8,2 C 7,2 C 5,6 C 97 % 1014,5 hPa 0,0 l/m 0 min 0 min 0 W/m 0,0 km/h (0 Bft) 97,14 %
25.12.2022 06:38 8,2 C 7,2 C 5,6 C 97 % 1014,4 hPa 0,0 l/m 0 min 0 min 0 W/m 0,0 km/h (0 Bft) 100,00 %
25.12.2022 06:40 8,2 C 7,2 C 5,6 C 97 % 1014,4 hPa 0,0 l/m 0 min 0 min 0 W/m 0,0 km/h (0 Bft) 96,61 %
25.12.2022 06:42 8,2 C 7,2 C 5,6 C 97 % 1014,4 hPa 0,0 l/m 0 min 0 min 0 W/m 0,0 km/h (0 Bft) 100,00 %
25.12.2022 06:44 8,2 C 7,2 C 5,6 C 97 % 1014,5 hPa 0,0 l/m 0 min 0 min 0 W/m 0,0 km/h (0 Bft) 100,00 %
25.12.2022 06:46 8,2 C 7,2 C 5,0 C 97 % 1014,5 hPa 0,0 l/m 0 min 0 min 0 W/m 6,4 km/h (2 Bft) 95,74 %
25.12.2022 06:48 8,2 C 7,2 C 5,0 C 97 % 1014,4 hPa 0,0 l/m 0 min 0 min 0 W/m 6,4 km/h (2 Bft) 100,00 %
25.12.2022 06:50 8,1 C 7,2 C 5,0 C 97 % 1014,4 hPa 0,0 l/m 0 min 0 min 0 W/m 3,2 km/h (1 Bft) 100,00 %
25.12.2022 06:52 8,1 C 7,2 C 5,0 C 97 % 1014,4 hPa 0,0 l/m 0 min 0 min 0 W/m 6,4 km/h (2 Bft) 97,87 %
25.12.2022 06:54 8,1 C 7,2 C 5,0 C 97 % 1014,5 hPa 0,0 l/m 0 min 0 min 0 W/m 6,4 km/h (2 Bft) 100,00 %
25.12.2022 06:56 8,1 C 7,2 C 5,0 C 97 % 1014,5 hPa 0,0 l/m 0 min 0 min 0 W/m 9,7 km/h (2 Bft) 97,87 %
25.12.2022 06:58 8,1 C 7,2 C 5,0 C 97 % 1014,6 hPa 0,0 l/m 0 min 0 min 0 W/m 6,4 km/h (2 Bft) 97,87 %
25.12.2022 07:00 8,1 C 7,2 C 5,0 C 97 % 1014,6 hPa 0,0 l/m 0 min 0 min 0 W/m 6,4 km/h (2 Bft) 100,00 %
25.12.2022 07:02 8,1 C 7,2 C 5,0 C 97 % 1014,5 hPa 0,0 l/m 0 min 0 min 0 W/m 6,4 km/h (2 Bft) 98,18 %
25.12.2022 07:04 8,1 C 7,2 C 5,0 C 97 % 1014,4 hPa 0,0 l/m 0 min 0 min 0 W/m 12,9 km/h (3 Bft) 97,87 %
25.12.2022 07:06 8,1 C 7,2 C 5,0 C 97 % 1014,3 hPa 0,0 l/m 0 min 0 min 0 W/m 3,2 km/h (1 Bft) 100,00 %
25.12.2022 07:08 8,0 C 7,2 C 5,0 C 97 % 1014,2 hPa 0,0 l/m 0 min 0 min 0 W/m 6,4 km/h (2 Bft) 97,87 %
25.12.2022 07:10 8,0 C 7,2 C 5,0 C 97 % 1014,2 hPa 0,0 l/m 0 min 0 min 0 W/m 0,0 km/h (0 Bft) 100,00 %
25.12.2022 07:12 8,0 C 7,2 C 5,0 C 97 % 1014,3 hPa 0,0 l/m 0 min 0 min 0 W/m 0,0 km/h (0 Bft) 100,00 %
25.12.2022 07:14 8,1 C 7,2 C 5,6 C 97 % 1014,3 hPa 0,0 l/m 0 min 0 min 0 W/m 3,2 km/h (1 Bft) 95,74 %
25.12.2022 07:16 8,0 C 7,2 C 5,6 C 97 % 1014,3 hPa 0,0 l/m 0 min 0 min 0 W/m 6,4 km/h (2 Bft) 97,87 %
25.12.2022 07:18 8,0 C 7,2 C 5,6 C 97 % 1014,3 hPa 0,0 l/m 0 min 0 min 0 W/m 6,4 km/h (2 Bft) 100,00 %
25.12.2022 07:20 8,1 C 7,8 C 5,6 C 97 % 1014,3 hPa 0,0 l/m 0 min 0 min 0 W/m 6,4 km/h (2 Bft) 93,62 %
25.12.2022 07:22 8,1 C 7,8 C 5,6 C 97 % 1014,2 hPa 0,0 l/m 0 min 0 min 0 W/m 12,9 km/h (3 Bft) 95,74 %
25.12.2022 07:24 8,1 C 7,8 C 5,6 C 97 % 1014,2 hPa 0,0 l/m 0 min 0 min 0 W/m 6,4 km/h (2 Bft) 97,83 %
25.12.2022 07:26 8,1 C 7,8 C 5,6 C 97 % 1014,1 hPa 0,0 l/m 0 min 0 min 0 W/m 6,4 km/h (2 Bft) 93,62 %
25.12.2022 07:28 8,1 C 7,8 C 5,6 C 97 % 1014,1 hPa 0,0 l/m 0 min 0 min 0 W/m 12,9 km/h (3 Bft) 95,74 %
25.12.2022 07:30 8,1 C 7,8 C 5,6 C 97 % 1014,0 hPa 0,0 l/m 0 min 0 min 0 W/m 6,4 km/h (2 Bft) 97,87 %
25.12.2022 07:32 8,2 C 7,8 C 5,6 C 97 % 1014,0 hPa 0,0 l/m 0 min 0 min 0 W/m 6,4 km/h (2 Bft) 93,62 %
25.12.2022 07:34 8,2 C 7,8 C 5,6 C 97 % 1013,9 hPa 0,0 l/m 0 min 0 min 0 W/m 16,1 km/h (3 Bft) 95,74 %
25.12.2022 07:36 8,2 C 7,8 C 5,6 C 97 % 1013,8 hPa 0,0 l/m 0 min 0 min 0 W/m 3,2 km/h (1 Bft) 91,49 %
25.12.2022 07:38 8,2 C 7,8 C 5,6 C 97 % 1013,7 hPa 0,0 l/m 0 min 0 min 0 W/m 6,4 km/h (2 Bft) 91,30 %
25.12.2022 07:40 8,2 C 7,8 C 5,6 C 97 % 1013,8 hPa 0,0 l/m 0 min 0 min 0 W/m 6,4 km/h (2 Bft) 91,49 %
25.12.2022 07:42 8,3 C 7,8 C 5,6 C 97 % 1013,9 hPa 0,0 l/m 0 min 0 min 0 W/m 12,9 km/h (3 Bft) 93,62 %
25.12.2022 07:44 8,3 C 8,3 C 6,1 C 97 % 1014,0 hPa 0,0 l/m 0 min 0 min 0 W/m 16,1 km/h (3 Bft) 93,62 %
25.12.2022 07:46 8,4 C 8,3 C 6,1 C 97 % 1014,0 hPa 0,0 l/m 0 min 0 min 0 W/m 12,9 km/h (3 Bft) 93,62 %
25.12.2022 07:48 8,4 C 8,3 C 6,1 C 97 % 1013,9 hPa 0,0 l/m 0 min 0 min 0 W/m 12,9 km/h (3 Bft) 93,62 %
25.12.2022 07:50 8,4 C 8,3 C 6,1 C 97 % 1013,8 hPa 0,0 l/m 0 min 0 min 0 W/m 12,9 km/h (3 Bft) 93,75 %
25.12.2022 07:52 8,4 C 8,3 C 6,1 C 97 % 1013,9 hPa 0,0 l/m 0 min 0 min 0 W/m 9,7 km/h (2 Bft) 89,36 %
25.12.2022 07:54 8,5 C 8,3 C 6,1 C 97 % 1013,9 hPa 0,0 l/m 0 min 0 min 0 W/m 12,9 km/h (3 Bft) 93,62 %
25.12.2022 07:56 8,5 C 8,3 C 6,1 C 97 % 1013,9 hPa 0,0 l/m 0 min 0 min 0 W/m 12,9 km/h (3 Bft) 91,49 %
25.12.2022 07:58 8,5 C 8,3 C 6,1 C 98 % 1013,8 hPa 0,0 l/m 0 min 0 min 0 W/m 19,3 km/h (3 Bft) 93,62 %
25.12.2022 08:00 8,6 C 8,3 C 6,1 C 97 % 1013,7 hPa 0,0 l/m 0 min 0 min 0 W/m 12,9 km/h (3 Bft) 93,62 %
25.12.2022 08:02 8,6 C 8,3 C 6,1 C 97 % 1013,5 hPa 0,0 l/m 0 min 0 min 0 W/m 19,3 km/h (3 Bft) 93,62 %
25.12.2022 08:04 8,6 C 8,3 C 6,1 C 97 % 1013,5 hPa 0,0 l/m 0 min 0 min 0 W/m 9,7 km/h (2 Bft) 95,65 %
25.12.2022 08:06 8,6 C 8,3 C 6,1 C 97 % 1013,5 hPa 0,0 l/m 0 min 0 min 0 W/m 12,9 km/h (3 Bft) 93,62 %
25.12.2022 08:08 8,7 C 8,3 C 6,1 C 97 % 1013,5 hPa 0,0 l/m 0 min 0 min 0 W/m 12,9 km/h (3 Bft) 91,49 %
25.12.2022 08:10 8,7 C 8,3 C 6,1 C 97 % 1013,5 hPa 0,0 l/m 0 min 0 min 0 W/m 16,1 km/h (3 Bft) 91,49 %
25.12.2022 08:12 8,7 C 8,3 C 6,1 C 97 % 1013,4 hPa 0,0 l/m 0 min 0 min 0 W/m 12,9 km/h (3 Bft) 91,49 %
25.12.2022 08:14 8,7 C 8,3 C 6,1 C 97 % 1013,4 hPa 0,0 l/m 0 min 0 min 0 W/m 16,1 km/h (3 Bft) 93,62 %
25.12.2022 08:16 8,7 C 8,3 C 6,1 C 97 % 1013,2 hPa 0,0 l/m 0 min 0 min 0 W/m 16,1 km/h (3 Bft) 95,65 %
25.12.2022 08:18 8,7 C 8,3 C 6,1 C 97 % 1013,2 hPa 0,0 l/m 0 min 0 min 0 W/m 6,4 km/h (2 Bft) 97,87 %
25.12.2022 08:20 8,7 C 8,3 C 6,1 C 97 % 1013,2 hPa 0,0 l/m 0 min 0 min 0 W/m 12,9 km/h (3 Bft) 100,00 %
25.12.2022 08:22 8,7 C 8,3 C 6,1 C 97 % 1013,1 hPa 0,0 l/m 0 min 0 min 0 W/m 6,4 km/h (2 Bft) 100,00 %
25.12.2022 08:24 8,8 C 8,3 C 6,1 C 97 % 1013,1 hPa 0,0 l/m 0 min 0 min 0 W/m 12,9 km/h (3 Bft) 100,00 %
25.12.2022 08:26 8,8 C 8,3 C 6,1 C 97 % 1013,2 hPa 0,0 l/m 0 min 0 min 0 W/m 9,7 km/h (2 Bft) 100,00 %
25.12.2022 08:28 8,7 C 8,3 C 6,1 C 97 % 1013,1 hPa 0,0 l/m 0 min 0 min 0 W/m 6,4 km/h (2 Bft) 97,87 %
25.12.2022 08:30 8,7 C 7,8 C 6,1 C 97 % 1013,1 hPa 0,0 l/m 0 min 0 min 0 W/m 12,9 km/h (3 Bft) 100,00 %
25.12.2022 08:32 8,7 C 7,8 C 6,1 C 97 % 1013,1 hPa 0,0 l/m 0 min 0 min 0 W/m 16,1 km/h (3 Bft) 97,87 %
25.12.2022 08:34 8,7 C 7,8 C 6,1 C 97 % 1013,1 hPa 0,0 l/m 0 min 0 min 0 W/m 12,9 km/h (3 Bft) 100,00 %
25.12.2022 08:36 8,7 C 7,8 C 6,1 C 97 % 1013,1 hPa 0,0 l/m 0 min 0 min 0 W/m 6,4 km/h (2 Bft) 97,87 %
25.12.2022 08:38 8,7 C 7,8 C 6,1 C 97 % 1013,0 hPa 0,0 l/m 0 min 0 min 0 W/m 6,4 km/h (2 Bft) 100,00 %
25.12.2022 08:40 8,7 C 7,8 C 6,1 C 97 % 1013,0 hPa 0,0 l/m 0 min 0 min 5 W/m 3,2 km/h (1 Bft) 100,00 %
25.12.2022 08:42 8,7 C 7,8 C 5,6 C 97 % 1013,0 hPa 0,0 l/m 0 min 0 min 5 W/m 3,2 km/h (1 Bft) 100,00 %
25.12.2022 08:44 8,7 C 7,8 C 5,6 C 97 % 1012,9 hPa 0,0 l/m 0 min 0 min 5 W/m 6,4 km/h (2 Bft) 100,00 %
25.12.2022 08:46 8,7 C 7,8 C 5,6 C 97 % 1012,9 hPa 0,0 l/m 0 min 0 min 7 W/m 3,2 km/h (1 Bft) 100,00 %
25.12.2022 08:48 8,7 C 7,8 C 5,6 C 97 % 1012,9 hPa 0,0 l/m 0 min 0 min 9 W/m 9,7 km/h (2 Bft) 100,00 %
25.12.2022 08:50 8,7 C 7,8 C 5,6 C 97 % 1013,0 hPa 0,0 l/m 0 min 0 min 10 W/m 9,7 km/h (2 Bft) 100,00 %
25.12.2022 08:52 8,7 C 7,8 C 5,6 C 97 % 1013,0 hPa 0,0 l/m 0 min 0 min 11 W/m 12,9 km/h (3 Bft) 100,00 %
25.12.2022 08:54 8,7 C 7,8 C 6,1 C 97 % 1013,1 hPa 0,0 l/m 0 min 0 min 12 W/m 12,9 km/h (3 Bft) 100,00 %
25.12.2022 08:56 8,7 C 7,8 C 6,1 C 97 % 1013,1 hPa 0,0 l/m 0 min 0 min 15 W/m 12,9 km/h (3 Bft) 100,00 %
25.12.2022 08:58 8,7 C 8,3 C 6,1 C 97 % 1013,1 hPa 0,0 l/m 0 min 0 min 18 W/m 16,1 km/h (3 Bft) 97,87 %
25.12.2022 09:00 8,7 C 8,3 C 6,1 C 97 % 1013,0 hPa 0,0 l/m 2 min 0 min 20 W/m 12,9 km/h (3 Bft) 100,00 %
25.12.2022 09:02 8,7 C 8,3 C 6,1 C 97 % 1012,9 hPa 0,0 l/m 2 min 0 min 21 W/m 16,1 km/h (3 Bft) 100,00 %
25.12.2022 09:04 8,7 C 8,3 C 6,1 C 97 % 1012,9 hPa 0,0 l/m 0 min 0 min 21 W/m 16,1 km/h (3 Bft) 97,87 %
25.12.2022 09:06 8,7 C 8,3 C 6,1 C 97 % 1013,1 hPa 0,0 l/m 0 min 0 min 21 W/m 16,1 km/h (3 Bft) 97,87 %
25.12.2022 09:08 8,7 C 8,3 C 6,1 C 97 % 1013,1 hPa 0,0 l/m 0 min 0 min 19 W/m 12,9 km/h (3 Bft) 97,83 %
25.12.2022 09:10 8,7 C 8,3 C 6,1 C 97 % 1013,1 hPa 0,0 l/m 0 min 0 min 18 W/m 12,9 km/h (3 Bft) 97,87 %
25.12.2022 09:12 8,7 C 8,3 C 6,1 C 97 % 1013,0 hPa 0,0 l/m 0 min 0 min 15 W/m 9,7 km/h (2 Bft) 100,00 %
25.12.2022 09:14 8,7 C 8,3 C 6,1 C 97 % 1013,0 hPa 0,0 l/m 0 min 0 min 16 W/m 6,4 km/h (2 Bft) 97,87 %
25.12.2022 09:16 8,7 C 8,3 C 6,1 C 97 % 1013,1 hPa 0,0 l/m 0 min 0 min 16 W/m 16,1 km/h (3 Bft) 100,00 %
25.12.2022 09:18 8,7 C 8,3 C 6,1 C 97 % 1013,0 hPa 0,0 l/m 0 min 0 min 16 W/m 12,9 km/h (3 Bft) 100,00 %
25.12.2022 09:20 8,8 C 8,3 C 6,1 C 97 % 1013,1 hPa 0,0 l/m 0 min 0 min 16 W/m 6,4 km/h (2 Bft) 97,83 %
25.12.2022 09:22 8,8 C 8,3 C 6,1 C 97 % 1013,2 hPa 0,0 l/m 0 min 0 min 16 W/m 6,4 km/h (2 Bft) 100,00 %
25.12.2022 09:24 8,8 C 8,3 C 6,1 C 97 % 1013,2 hPa 0,0 l/m 0 min 0 min 14 W/m 9,7 km/h (2 Bft) 100,00 %
25.12.2022 09:26 8,8 C 8,3 C 6,1 C 96 % 1013,0 hPa 0,0 l/m 0 min 0 min 14 W/m 6,4 km/h (2 Bft) 100,00 %
25.12.2022 09:28 8,8 C 8,3 C 6,1 C 96 % 1012,8 hPa 0,0 l/m 0 min 0 min 16 W/m 3,2 km/h (1 Bft) 100,00 %
25.12.2022 09:30 8,8 C 8,3 C 6,1 C 96 % 1012,7 hPa 0,0 l/m 0 min 0 min 22 W/m 6,4 km/h (2 Bft) 97,87 %
25.12.2022 09:32 8,8 C 8,3 C 6,1 C 96 % 1012,7 hPa 0,0 l/m 0 min 0 min 27 W/m 6,4 km/h (2 Bft) 100,00 %
25.12.2022 09:34 8,8 C 8,3 C 6,1 C 96 % 1012,8 hPa 0,0 l/m 0 min 0 min 25 W/m 6,4 km/h (2 Bft) 100,00 %
25.12.2022 09:36 8,8 C 8,3 C 6,1 C 96 % 1013,1 hPa 0,0 l/m 0 min 0 min 17 W/m 3,2 km/h (1 Bft) 95,74 %
25.12.2022 09:38 8,8 C 8,3 C 6,1 C 96 % 1013,3 hPa 0,0 l/m 0 min 0 min 12 W/m 3,2 km/h (1 Bft) 97,87 %
25.12.2022 09:40 8,8 C 8,3 C 6,1 C 96 % 1013,5 hPa 0,0 l/m 0 min 0 min 12 W/m 9,7 km/h (2 Bft) 97,87 %
25.12.2022 09:42 8,8 C 8,3 C 6,1 C 96 % 1013,5 hPa 0,0 l/m 0 min 0 min 12 W/m 6,4 km/h (2 Bft) 97,87 %
25.12.2022 09:44 8,8 C 8,3 C 6,1 C 96 % 1013,6 hPa 0,0 l/m 0 min 0 min 11 W/m 6,4 km/h (2 Bft) 97,87 %
25.12.2022 09:46 8,8 C 8,3 C 6,1 C 96 % 1013,7 hPa 0,0 l/m 0 min 0 min 9 W/m 3,2 km/h (1 Bft) 97,83 %
25.12.2022 09:48 8,8 C 8,3 C 6,1 C 96 % 1013,7 hPa 0,0 l/m 0 min 2 min 9 W/m 6,4 km/h (2 Bft) 97,87 %
25.12.2022 09:50 8,8 C 8,3 C 6,1 C 96 % 1013,6 hPa 0,0 l/m 0 min 2 min 11 W/m 3,2 km/h (1 Bft) 95,74 %
25.12.2022 09:52 8,9 C 8,3 C 6,1 C 96 % 1013,5 hPa 0,0 l/m 0 min 2 min 11 W/m 6,4 km/h (2 Bft) 97,87 %
25.12.2022 09:54 8,9 C 8,3 C 6,1 C 96 % 1013,4 hPa 0,0 l/m 0 min 0 min 13 W/m 6,4 km/h (2 Bft) 97,87 %
25.12.2022 09:56 8,9 C 8,3 C 6,1 C 96 % 1013,3 hPa 0,0 l/m 0 min 2 min 16 W/m 6,4 km/h (2 Bft) 95,74 %
25.12.2022 09:58 8,9 C 8,3 C 6,1 C 96 % 1013,3 hPa 0,0 l/m 0 min 0 min 18 W/m 12,9 km/h (3 Bft) 97,87 %
25.12.2022 10:00 8,9 C 8,3 C 6,1 C 96 % 1013,2 hPa 0,0 l/m 0 min 0 min 16 W/m 3,2 km/h (1 Bft) 91,30 %
25.12.2022 10:02 8,9 C 8,3 C 6,1 C 96 % 1013,2 hPa 0,0 l/m 0 min 0 min 15 W/m 3,2 km/h (1 Bft) 95,74 %
25.12.2022 10:04 8,9 C 8,3 C 6,1 C 96 % 1013,2 hPa 0,0 l/m 0 min 0 min 14 W/m 3,2 km/h (1 Bft) 97,87 %
25.12.2022 10:06 8,9 C 8,3 C 6,1 C 96 % 1013,1 hPa 0,0 l/m 0 min 0 min 15 W/m 6,4 km/h (2 Bft) 97,87 %
25.12.2022 10:08 8,9 C 8,3 C 6,1 C 96 % 1013,1 hPa 0,0 l/m 0 min 0 min 16 W/m 6,4 km/h (2 Bft) 95,74 %
25.12.2022 10:10 9,0 C 8,3 C 6,1 C 96 % 1013,2 hPa 0,0 l/m 0 min 0 min 16 W/m 6,4 km/h (2 Bft) 97,14 %
25.12.2022 10:12 9,0 C 8,3 C 6,1 C 96 % 1013,2 hPa 0,0 l/m 0 min 0 min 16 W/m 6,4 km/h (2 Bft) 95,74 %
25.12.2022 10:14 9,0 C 8,3 C 6,1 C 96 % 1013,3 hPa 0,0 l/m 0 min 0 min 14 W/m 6,4 km/h (2 Bft) 98,28 %
25.12.2022 10:16 9,0 C 8,3 C 6,1 C 96 % 1013,4 hPa 0,0 l/m 0 min 0 min 13 W/m 6,4 km/h (2 Bft) 97,87 %
25.12.2022 10:18 9,1 C 8,3 C 6,1 C 97 % 1013,4 hPa 0,0 l/m 0 min 0 min 12 W/m 6,4 km/h (2 Bft) 97,14 %
25.12.2022 10:20 9,1 C 8,3 C 6,1 C 97 % 1013,4 hPa 0,0 l/m 0 min 2 min 12 W/m 9,7 km/h (2 Bft) 97,87 %
25.12.2022 10:22 9,1 C 8,3 C 6,1 C 97 % 1013,6 hPa 0,0 l/m 0 min 0 min 10 W/m 12,9 km/h (3 Bft) 96,61 %
25.12.2022 10:24 9,1 C 8,3 C 6,1 C 97 % 1013,6 hPa 0,0 l/m 0 min 0 min 9 W/m 6,4 km/h (2 Bft) 37,50 %
25.12.2022 10:26 9,1 C 8,3 C 6,1 C 97 % 1013,6 hPa 0,0 l/m 0 min 2 min 7 W/m 9,7 km/h (2 Bft) 95,74 %
25.12.2022 10:28 9,1 C 8,3 C 6,1 C 97 % 1013,7 hPa 0,0 l/m 0 min 2 min 7 W/m 6,4 km/h (2 Bft) 95,65 %
25.12.2022 10:30 9,1 C 8,3 C 6,1 C 97 % 1013,7 hPa 0,2 l/m 0 min 2 min 7 W/m 6,4 km/h (2 Bft) 89,36 %
25.12.2022 10:32 9,1 C 8,3 C 6,1 C 97 % 1013,6 hPa 0,0 l/m 0 min 2 min 5 W/m 9,7 km/h (2 Bft) 93,62 %
25.12.2022 10:34 9,1 C 8,3 C 6,1 C 97 % 1013,5 hPa 0,0 l/m 0 min 2 min 6 W/m 6,4 km/h (2 Bft) 95,74 %
25.12.2022 10:36 9,2 C 8,3 C 6,1 C 97 % 1013,5 hPa 0,0 l/m 0 min 2 min 7 W/m 16,1 km/h (3 Bft) 93,62 %
25.12.2022 10:38 9,2 C 8,3 C 6,1 C 97 % 1013,5 hPa 0,2 l/m 0 min 2 min 6 W/m 9,7 km/h (2 Bft) 95,74 %
25.12.2022 10:40 9,2 C 8,3 C 6,1 C 97 % 1013,4 hPa 0,0 l/m 0 min 2 min 5 W/m 6,4 km/h (2 Bft) 95,74 %
25.12.2022 10:42 9,2 C 8,3 C 6,1 C 97 % 1013,5 hPa 0,2 l/m 0 min 2 min 6 W/m 6,4 km/h (2 Bft) 95,65 %
25.12.2022 10:44 9,2 C 8,3 C 6,1 C 97 % 1013,7 hPa 0,2 l/m 0 min 2 min 5 W/m 12,9 km/h (3 Bft) 93,62 %
25.12.2022 10:46 9,2 C 8,3 C 6,1 C 97 % 1013,7 hPa 0,4 l/m 0 min 2 min 6 W/m 12,9 km/h (3 Bft) 95,74 %
25.12.2022 10:48 9,2 C 8,3 C 6,1 C 97 % 1013,7 hPa 0,2 l/m 0 min 2 min 7 W/m 12,9 km/h (3 Bft) 95,74 %
25.12.2022 10:50 9,2 C 8,3 C 6,1 C 97 % 1013,6 hPa 0,2 l/m 0 min 2 min 7 W/m 12,9 km/h (3 Bft) 95,74 %
25.12.2022 10:52 9,2 C 8,3 C 6,1 C 97 % 1013,5 hPa 0,2 l/m 0 min 2 min 8 W/m 9,7 km/h (2 Bft) 95,74 %
25.12.2022 10:54 9,2 C 8,3 C 6,1 C 97 % 1013,5 hPa 0,2 l/m 0 min 2 min 10 W/m 6,4 km/h (2 Bft) 93,48 %
25.12.2022 10:56 9,2 C 8,3 C 6,1 C 97 % 1013,4 hPa 0,2 l/m 0 min 2 min 11 W/m 6,4 km/h (2 Bft) 95,74 %
25.12.2022 10:58 9,2 C 8,3 C 6,1 C 97 % 1013,4 hPa 0,2 l/m 0 min 2 min 14 W/m 12,9 km/h (3 Bft) 95,74 %
25.12.2022 11:00 9,2 C 8,3 C 6,1 C 97 % 1013,3 hPa 0,0 l/m 0 min 2 min 18 W/m 6,4 km/h (2 Bft) 97,87 %
25.12.2022 11:02 9,2 C 8,3 C 6,1 C 97 % 1013,2 hPa 0,2 l/m 0 min 2 min 22 W/m 6,4 km/h (2 Bft) 97,87 %
25.12.2022 11:04 9,2 C 8,3 C 6,1 C 97 % 1013,1 hPa 0,2 l/m 0 min 2 min 25 W/m 12,9 km/h (3 Bft) 97,87 %
25.12.2022 11:06 9,2 C 8,3 C 6,1 C 97 % 1013,1 hPa 0,0 l/m 0 min 2 min 29 W/m 12,9 km/h (3 Bft) 94,92 %
25.12.2022 11:08 9,2 C 8,3 C 6,1 C 97 % 1013,1 hPa 0,0 l/m 0 min 2 min 36 W/m 3,2 km/h (1 Bft) 100,00 %
25.12.2022 11:10 9,2 C 8,3 C 6,1 C 97 % 1013,2 hPa 0,0 l/m 0 min 2 min 36 W/m 6,4 km/h (2 Bft) 97,87 %
25.12.2022 11:12 9,2 C 8,3 C 6,1 C 97 % 1013,2 hPa 0,0 l/m 0 min 2 min 32 W/m 6,4 km/h (2 Bft) 97,87 %
25.12.2022 11:14 9,2 C 8,3 C 6,1 C 97 % 1013,1 hPa 0,0 l/m 0 min 2 min 30 W/m 6,4 km/h (2 Bft) 97,87 %
25.12.2022 11:16 9,2 C 8,3 C 6,1 C 97 % 1013,1 hPa 0,2 l/m 0 min 2 min 28 W/m 12,9 km/h (3 Bft) 97,87 %
25.12.2022 11:18 9,2 C 8,3 C 6,1 C 97 % 1013,0 hPa 0,0 l/m 0 min 2 min 26 W/m 6,4 km/h (2 Bft) 97,87 %
25.12.2022 11:20 9,2 C 8,3 C 6,1 C 97 % 1012,9 hPa 0,0 l/m 0 min 2 min 28 W/m 6,4 km/h (2 Bft) 95,65 %
25.12.2022 11:22 9,2 C 8,3 C 6,1 C 97 % 1012,8 hPa 0,0 l/m 0 min 2 min 33 W/m 16,1 km/h (3 Bft) 100,00 %
25.12.2022 11:24 9,3 C 8,3 C 6,1 C 97 % 1012,8 hPa 0,0 l/m 0 min 2 min 37 W/m 12,9 km/h (3 Bft) 97,87 %
25.12.2022 11:26 9,3 C 8,3 C 6,1 C 97 % 1012,7 hPa 0,0 l/m 0 min 2 min 34 W/m 12,9 km/h (3 Bft) 100,00 %
25.12.2022 11:28 9,3 C 8,3 C 6,1 C 97 % 1012,8 hPa 0,2 l/m 0 min 2 min 34 W/m 12,9 km/h (3 Bft) 97,87 %
25.12.2022 11:30 9,3 C 8,3 C 6,1 C 97 % 1012,8 hPa 0,0 l/m 0 min 2 min 32 W/m 9,7 km/h (2 Bft) 100,00 %
25.12.2022 11:32 9,3 C 8,3 C 6,1 C 97 % 1012,8 hPa 0,0 l/m 0 min 0 min 31 W/m 6,4 km/h (2 Bft) 97,87 %
25.12.2022 11:34 9,3 C 8,3 C 6,1 C 97 % 1012,8 hPa 0,0 l/m 0 min 2 min 30 W/m 6,4 km/h (2 Bft) 97,83 %
25.12.2022 11:36 9,3 C 8,3 C 6,1 C 97 % 1012,7 hPa 0,0 l/m 0 min 2 min 32 W/m 3,2 km/h (1 Bft) 97,87 %
25.12.2022 11:38 9,3 C 8,3 C 6,1 C 98 % 1012,7 hPa 0,0 l/m 0 min 2 min 31 W/m 6,4 km/h (2 Bft) 97,87 %
25.12.2022 11:40 9,3 C 8,3 C 6,1 C 98 % 1012,7 hPa 0,2 l/m 0 min 2 min 31 W/m 9,7 km/h (2 Bft) 97,87 %
25.12.2022 11:42 9,3 C 8,3 C 6,1 C 98 % 1012,7 hPa 0,0 l/m 0 min 2 min 24 W/m 6,4 km/h (2 Bft) 97,87 %
25.12.2022 11:44 9,3 C 8,3 C 6,1 C 98 % 1012,7 hPa 0,2 l/m 0 min 2 min 18 W/m 12,9 km/h (3 Bft) 97,87 %
25.12.2022 11:46 9,3 C 8,3 C 6,1 C 98 % 1012,7 hPa 0,0 l/m 0 min 2 min 19 W/m 6,4 km/h (2 Bft) 97,83 %
25.12.2022 11:48 9,3 C 8,3 C 6,1 C 98 % 1012,7 hPa 0,2 l/m 0 min 2 min 20 W/m 6,4 km/h (2 Bft) 97,87 %
25.12.2022 11:50 9,3 C 8,3 C 6,1 C 98 % 1012,7 hPa 0,0 l/m 0 min 2 min 24 W/m 12,9 km/h (3 Bft) 95,74 %
25.12.2022 11:52 9,3 C 8,3 C 6,1 C 98 % 1012,6 hPa 0,0 l/m 0 min 2 min 19 W/m 6,4 km/h (2 Bft) 95,74 %
25.12.2022 11:54 9,3 C 8,3 C 6,7 C 98 % 1012,7 hPa 0,0 l/m 0 min 2 min 12 W/m 6,4 km/h (2 Bft) 95,74 %
25.12.2022 11:56 9,3 C 8,3 C 6,1 C 98 % 1012,7 hPa 0,2 l/m 0 min 2 min 11 W/m 6,4 km/h (2 Bft) 97,87 %
25.12.2022 11:58 9,3 C 8,3 C 6,1 C 98 % 1012,6 hPa 0,4 l/m 0 min 2 min 15 W/m 12,9 km/h (3 Bft) 97,87 %
25.12.2022 12:00 9,3 C 8,3 C 6,1 C 98 % 1012,6 hPa 0,4 l/m 0 min 2 min 16 W/m 6,4 km/h (2 Bft) 97,83 %
25.12.2022 12:02 9,3 C 8,3 C 6,7 C 98 % 1012,6 hPa 0,0 l/m 0 min 2 min 15 W/m 3,2 km/h (1 Bft) 93,62 %
25.12.2022 12:04 9,3 C 8,3 C 6,7 C 98 % 1012,6 hPa 0,0 l/m 0 min 2 min 16 W/m 0,0 km/h (0 Bft) 97,87 %
25.12.2022 12:08 9,3 C 8,3 C 6,7 C 98 % 1012,3 hPa 0,2 l/m 0 min 4 min 19 W/m 0,0 km/h (0 Bft) 100,00 %
25.12.2022 12:10 9,3 C 8,3 C 6,7 C 98 % 1012,2 hPa 0,0 l/m 0 min 2 min 25 W/m 0,0 km/h (0 Bft) 97,87 %
25.12.2022 12:12 9,3 C 8,3 C 6,7 C 98 % 1012,3 hPa 0,0 l/m 0 min 2 min 22 W/m 9,7 km/h (2 Bft) 100,00 %
25.12.2022 12:14 9,3 C 8,3 C 6,7 C 98 % 1012,3 hPa 0,0 l/m 0 min 0 min 21 W/m 6,4 km/h (2 Bft) 100,00 %
25.12.2022 12:16 9,3 C 8,3 C 6,7 C 98 % 1012,2 hPa 0,0 l/m 0 min 0 min 24 W/m 6,4 km/h (2 Bft) 100,00 %
25.12.2022 12:18 9,3 C 8,3 C 6,7 C 98 % 1012,0 hPa 0,0 l/m 0 min 2 min 34 W/m 12,9 km/h (3 Bft) 97,87 %
25.12.2022 12:20 9,3 C 8,3 C 6,7 C 98 % 1011,8 hPa 0,0 l/m 0 min 2 min 51 W/m 6,4 km/h (2 Bft) 100,00 %
25.12.2022 12:22 9,3 C 8,9 C 6,7 C 98 % 1011,8 hPa 0,0 l/m 0 min 0 min 56 W/m 3,2 km/h (1 Bft) 97,87 %
25.12.2022 12:24 9,4 C 8,9 C 6,7 C 98 % 1011,7 hPa 0,0 l/m 0 min 0 min 52 W/m 12,9 km/h (3 Bft) 100,00 %
25.12.2022 12:26 9,4 C 8,9 C 6,7 C 98 % 1011,5 hPa 0,0 l/m 0 min 0 min 53 W/m 6,4 km/h (2 Bft) 100,00 %
25.12.2022 12:28 9,4 C 8,9 C 6,7 C 98 % 1011,4 hPa 0,0 l/m 0 min 0 min 52 W/m 12,9 km/h (3 Bft) 100,00 %
25.12.2022 12:30 9,4 C 8,9 C 6,7 C 98 % 1011,4 hPa 0,0 l/m 0 min 2 min 46 W/m 6,4 km/h (2 Bft) 100,00 %
25.12.2022 12:32 9,4 C 8,9 C 6,7 C 98 % 1011,3 hPa 0,0 l/m 0 min 0 min 35 W/m 3,2 km/h (1 Bft) 100,00 %
25.12.2022 12:34 9,4 C 8,9 C 6,7 C 98 % 1011,2 hPa 0,0 l/m 0 min 0 min 31 W/m 6,4 km/h (2 Bft) 98,00 %
25.12.2022 12:36 9,4 C 8,9 C 6,7 C 98 % 1011,2 hPa 0,0 l/m 0 min 0 min 27 W/m 6,4 km/h (2 Bft) 97,83 %
25.12.2022 12:38 9,4 C 8,9 C 6,7 C 98 % 1011,2 hPa 0,0 l/m 0 min 0 min 25 W/m 6,4 km/h (2 Bft) 97,87 %
25.12.2022 12:40 9,4 C 8,9 C 6,7 C 98 % 1011,2 hPa 0,0 l/m 0 min 0 min 22 W/m 3,2 km/h (1 Bft) 97,87 %
25.12.2022 12:42 9,4 C 8,9 C 6,7 C 98 % 1011,2 hPa 0,0 l/m 0 min 0 min 18 W/m 3,2 km/h (1 Bft) 100,00 %
25.12.2022 12:44 9,4 C 8,9 C 6,7 C 98 % 1011,3 hPa 0,0 l/m 0 min 0 min 14 W/m 3,2 km/h (1 Bft) 97,87 %
25.12.2022 12:46 9,4 C 8,9 C 6,7 C 98 % 1011,4 hPa 0,0 l/m 0 min 0 min 11 W/m 3,2 km/h (1 Bft) 97,87 %
25.12.2022 12:48 9,4 C 8,9 C 6,7 C 98 % 1011,4 hPa 0,0 l/m 0 min 0 min 11 W/m 12,9 km/h (3 Bft) 97,87 %
25.12.2022 12:50 9,4 C 8,9 C 6,7 C 98 % 1011,3 hPa 0,2 l/m 0 min 2 min 11 W/m 3,2 km/h (1 Bft) 97,83 %
25.12.2022 12:52 9,4 C 8,9 C 6,7 C 98 % 1011,2 hPa 0,0 l/m 0 min 2 min 9 W/m 6,4 km/h (2 Bft) 97,87 %
25.12.2022 12:54 9,4 C 8,9 C 6,7 C 98 % 1011,2 hPa 0,0 l/m 0 min 2 min 9 W/m 6,4 km/h (2 Bft) 97,87 %
25.12.2022 12:56 9,4 C 8,9 C 6,7 C 98 % 1011,2 hPa 0,0 l/m 0 min 2 min 9 W/m 6,4 km/h (2 Bft) 97,87 %
25.12.2022 12:58 9,4 C 8,9 C 6,7 C 98 % 1011,2 hPa 0,0 l/m 0 min 2 min 9 W/m 3,2 km/h (1 Bft) 97,87 %
25.12.2022 13:00 9,4 C 8,9 C 6,7 C 98 % 1011,3 hPa 0,0 l/m 0 min 2 min 9 W/m 6,4 km/h (2 Bft) 95,74 %
25.12.2022 13:02 9,4 C 8,9 C 6,7 C 98 % 1011,3 hPa 0,2 l/m 0 min 2 min 9 W/m 3,2 km/h (1 Bft) 95,74 %
25.12.2022 13:04 9,4 C 8,9 C 6,7 C 98 % 1011,2 hPa 0,2 l/m 0 min 2 min 9 W/m 3,2 km/h (1 Bft) 97,83 %
25.12.2022 13:06 9,4 C 8,9 C 6,7 C 98 % 1011,1 hPa 0,4 l/m 0 min 2 min 11 W/m 3,2 km/h (1 Bft) 97,87 %
25.12.2022 13:08 9,4 C 8,9 C 6,7 C 98 % 1011,0 hPa 0,2 l/m 0 min 2 min 13 W/m 3,2 km/h (1 Bft) 97,87 %
25.12.2022 13:10 9,4 C 8,3 C 6,7 C 98 % 1011,0 hPa 0,2 l/m 0 min 2 min 12 W/m 3,2 km/h (1 Bft) 97,87 %
25.12.2022 13:12 9,4 C 8,3 C 6,7 C 98 % 1011,0 hPa 0,0 l/m 0 min 2 min 9 W/m 3,2 km/h (1 Bft) 95,74 %
25.12.2022 13:14 9,4 C 8,3 C 6,7 C 98 % 1011,0 hPa 0,0 l/m 0 min 2 min 9 W/m 6,4 km/h (2 Bft) 93,62 %
25.12.2022 13:16 9,4 C 8,9 C 6,7 C 98 % 1011,0 hPa 0,2 l/m 0 min 2 min 13 W/m 3,2 km/h (1 Bft) 95,65 %
25.12.2022 13:18 9,4 C 8,9 C 6,7 C 99 % 1011,0 hPa 0,2 l/m 0 min 2 min 12 W/m 3,2 km/h (1 Bft) 95,74 %
25.12.2022 13:20 9,4 C 8,9 C 6,7 C 99 % 1011,1 hPa 0,0 l/m 0 min 2 min 11 W/m 3,2 km/h (1 Bft) 95,74 %
25.12.2022 13:22 9,4 C 8,9 C 6,7 C 99 % 1010,9 hPa 0,4 l/m 0 min 2 min 14 W/m 0,0 km/h (0 Bft) 95,74 %
25.12.2022 13:24 9,4 C 8,9 C 6,7 C 99 % 1010,8 hPa 0,0 l/m 0 min 2 min 17 W/m 0,0 km/h (0 Bft) 95,74 %
25.12.2022 13:26 9,4 C 8,9 C 6,7 C 99 % 1010,8 hPa 0,2 l/m 0 min 2 min 11 W/m 0,0 km/h (0 Bft) 95,74 %
25.12.2022 13:28 9,4 C 8,9 C 6,7 C 99 % 1010,8 hPa 0,0 l/m 0 min 2 min 11 W/m 0,0 km/h (0 Bft) 93,48 %
25.12.2022 13:30 9,4 C 8,9 C 6,7 C 99 % 1010,8 hPa 0,2 l/m 0 min 2 min 13 W/m 0,0 km/h (0 Bft) 93,62 %
25.12.2022 13:32 9,4 C 8,9 C 6,7 C 99 % 1010,8 hPa 0,0 l/m 0 min 2 min 11 W/m 0,0 km/h (0 Bft) 95,74 %
25.12.2022 13:34 9,4 C 8,9 C 6,7 C 99 % 1010,7 hPa 0,0 l/m 0 min 2 min 11 W/m 3,2 km/h (1 Bft) 93,62 %
25.12.2022 13:36 9,5 C 8,9 C 6,7 C 99 % 1010,8 hPa 0,0 l/m 0 min 2 min 8 W/m 3,2 km/h (1 Bft) 95,74 %
25.12.2022 13:38 9,4 C 8,9 C 6,7 C 99 % 1010,8 hPa 0,2 l/m 0 min 2 min 7 W/m 3,2 km/h (1 Bft) 95,74 %
25.12.2022 13:40 9,4 C 8,9 C 6,7 C 99 % 1010,7 hPa 0,0 l/m 0 min 2 min 10 W/m 3,2 km/h (1 Bft) 93,62 %
25.12.2022 13:42 9,4 C 8,9 C 6,7 C 99 % 1010,8 hPa 0,0 l/m 0 min 2 min 12 W/m 0,0 km/h (0 Bft) 95,65 %
25.12.2022 13:44 9,4 C 8,9 C 6,7 C 99 % 1010,8 hPa 0,0 l/m 0 min 2 min 15 W/m 0,0 km/h (0 Bft) 95,74 %
25.12.2022 13:46 9,4 C 8,9 C 6,7 C 99 % 1010,7 hPa 0,0 l/m 0 min 0 min 14 W/m 0,0 km/h (0 Bft) 91,49 %
25.12.2022 13:48 9,4 C 8,9 C 6,7 C 99 % 1010,7 hPa 0,0 l/m 0 min 2 min 13 W/m 3,2 km/h (1 Bft) 95,74 %
25.12.2022 13:50 9,4 C 8,9 C 6,7 C 99 % 1010,7 hPa 0,0 l/m 0 min 2 min 11 W/m 6,4 km/h (2 Bft) 95,74 %
25.12.2022 13:52 9,5 C 8,9 C 6,7 C 99 % 1010,5 hPa 0,2 l/m 0 min 2 min 12 W/m 3,2 km/h (1 Bft) 95,74 %
25.12.2022 13:54 9,5 C 8,9 C 6,7 C 99 % 1010,5 hPa 0,0 l/m 0 min 2 min 12 W/m 3,2 km/h (1 Bft) 97,83 %
25.12.2022 13:56 9,5 C 8,9 C 6,7 C 99 % 1010,5 hPa 0,0 l/m 0 min 0 min 12 W/m 3,2 km/h (1 Bft) 95,74 %
25.12.2022 13:58 9,5 C 8,9 C 6,7 C 99 % 1010,5 hPa 0,0 l/m 0 min 2 min 12 W/m 3,2 km/h (1 Bft) 95,74 %
25.12.2022 14:00 9,5 C 8,9 C 6,7 C 99 % 1010,5 hPa 0,0 l/m 0 min 2 min 14 W/m 3,2 km/h (1 Bft) 95,74 %
25.12.2022 14:02 9,5 C 8,9 C 6,7 C 99 % 1010,3 hPa 0,0 l/m 0 min 0 min 14 W/m 3,2 km/h (1 Bft) 95,74 %
25.12.2022 14:04 9,5 C 8,9 C 6,7 C 99 % 1010,5 hPa 0,0 l/m 0 min 0 min 12 W/m 6,4 km/h (2 Bft) 97,87 %
25.12.2022 14:06 9,5 C 8,9 C 6,7 C 99 % 1010,4 hPa 0,0 l/m 0 min 0 min 11 W/m 0,0 km/h (0 Bft) 100,00 %
25.12.2022 14:08 9,6 C 8,9 C 6,7 C 99 % 1010,4 hPa 0,0 l/m 0 min 0 min 11 W/m 0,0 km/h (0 Bft) 97,83 %
25.12.2022 14:10 9,5 C 8,9 C 6,7 C 99 % 1010,4 hPa 0,0 l/m 0 min 0 min 10 W/m 0,0 km/h (0 Bft) 100,00 %
25.12.2022 14:12 9,6 C 8,9 C 6,7 C 99 % 1010,4 hPa 0,0 l/m 0 min 0 min 9 W/m 0,0 km/h (0 Bft) 100,00 %
25.12.2022 14:14 9,6 C 8,9 C 6,7 C 99 % 1010,3 hPa 0,0 l/m 0 min 0 min 7 W/m 0,0 km/h (0 Bft) 100,00 %
25.12.2022 14:16 9,5 C 8,9 C 6,7 C 99 % 1010,4 hPa 0,0 l/m 0 min 0 min 8 W/m 0,0 km/h (0 Bft) 95,74 %
25.12.2022 14:18 9,6 C 8,9 C 6,7 C 99 % 1010,3 hPa 0,0 l/m 0 min 0 min 7 W/m 0,0 km/h (0 Bft) 97,87 %
25.12.2022 14:20 9,6 C 8,9 C 6,7 C 99 % 1010,3 hPa 0,0 l/m 0 min 0 min 7 W/m 0,0 km/h (0 Bft) 100,00 %
25.12.2022 14:22 9,6 C 8,9 C 6,7 C 99 % 1010,2 hPa 0,2 l/m 0 min 0 min 11 W/m 0,0 km/h (0 Bft) 100,00 %
25.12.2022 14:24 9,5 C 8,9 C 6,7 C 99 % 1010,1 hPa 0,0 l/m 0 min 2 min 15 W/m 0,0 km/h (0 Bft) 100,00 %
25.12.2022 14:26 9,6 C 8,9 C 6,7 C 99 % 1010,2 hPa 0,2 l/m 0 min 2 min 16 W/m 0,0 km/h (0 Bft) 100,00 %
25.12.2022 14:28 9,6 C 8,9 C 6,7 C 99 % 1010,2 hPa 0,0 l/m 0 min 2 min 13 W/m 0,0 km/h (0 Bft) 100,00 %
25.12.2022 14:30 9,5 C 8,9 C 6,7 C 99 % 1010,2 hPa 0,0 l/m 0 min 2 min 16 W/m 0,0 km/h (0 Bft) 100,00 %
25.12.2022 14:32 9,6 C 8,9 C 6,7 C 99 % 1010,0 hPa 0,0 l/m 0 min 0 min 18 W/m 0,0 km/h (0 Bft) 100,00 %
25.12.2022 14:34 9,6 C 8,9 C 6,7 C 99 % 1010,1 hPa 0,0 l/m 0 min 0 min 17 W/m 6,4 km/h (2 Bft) 97,83 %
25.12.2022 14:36 9,6 C 8,9 C 7,2 C 99 % 1010,1 hPa 0,0 l/m 0 min 0 min 20 W/m 3,2 km/h (1 Bft) 100,00 %
25.12.2022 14:38 9,6 C 8,9 C 7,2 C 99 % 1010,2 hPa 0,0 l/m 0 min 0 min 14 W/m 0,0 km/h (0 Bft) 100,00 %
25.12.2022 14:40 9,6 C 8,9 C 6,7 C 99 % 1010,2 hPa 0,0 l/m 0 min 0 min 11 W/m 0,0 km/h (0 Bft) 100,00 %
25.12.2022 14:42 9,6 C 8,9 C 6,7 C 99 % 1010,2 hPa 0,0 l/m 0 min 2 min 12 W/m 0,0 km/h (0 Bft) 100,00 %
25.12.2022 14:44 9,6 C 8,9 C 6,7 C 99 % 1010,1 hPa 0,2 l/m 0 min 2 min 14 W/m 3,2 km/h (1 Bft) 100,00 %
25.12.2022 14:46 9,6 C 8,9 C 7,2 C 99 % 1010,1 hPa 0,0 l/m 0 min 2 min 15 W/m 3,2 km/h (1 Bft) 100,00 %
25.12.2022 14:48 9,6 C 8,9 C 7,2 C 99 % 1010,1 hPa 0,0 l/m 0 min 2 min 17 W/m 3,2 km/h (1 Bft) 97,87 %
25.12.2022 14:50 9,6 C 8,9 C 6,7 C 99 % 1010,1 hPa 0,0 l/m 0 min 2 min 17 W/m 3,2 km/h (1 Bft) 95,74 %
25.12.2022 14:52 9,6 C 8,9 C 7,2 C 99 % 1010,2 hPa 0,2 l/m 0 min 2 min 18 W/m 3,2 km/h (1 Bft) 100,00 %
25.12.2022 14:54 9,6 C 8,9 C 7,2 C 99 % 1010,1 hPa 0,0 l/m 0 min 2 min 20 W/m 6,4 km/h (2 Bft) 100,00 %
25.12.2022 14:56 9,6 C 8,9 C 7,2 C 99 % 1010,1 hPa 0,0 l/m 0 min 2 min 21 W/m 6,4 km/h (2 Bft) 97,87 %
25.12.2022 14:58 9,6 C 8,9 C 7,2 C 99 % 1010,0 hPa 0,0 l/m 0 min 2 min 19 W/m 3,2 km/h (1 Bft) 100,00 %
25.12.2022 15:00 9,6 C 8,9 C 7,2 C 99 % 1010,0 hPa 0,0 l/m 0 min 2 min 20 W/m 3,2 km/h (1 Bft) 100,00 %
25.12.2022 15:02 9,6 C 8,9 C 7,2 C 99 % 1010,0 hPa 0,0 l/m 0 min 0 min 24 W/m 3,2 km/h (1 Bft) 100,00 %
25.12.2022 15:04 9,6 C 8,9 C 7,2 C 99 % 1010,0 hPa 0,0 l/m 0 min 2 min 24 W/m 3,2 km/h (1 Bft) 100,00 %
25.12.2022 15:06 9,6 C 8,9 C 7,2 C 99 % 1009,9 hPa 0,0 l/m 0 min 0 min 26 W/m 3,2 km/h (1 Bft) 100,00 %
25.12.2022 15:08 9,6 C 8,9 C 7,2 C 99 % 1009,9 hPa 0,0 l/m 0 min 0 min 25 W/m 3,2 km/h (1 Bft) 100,00 %
25.12.2022 15:10 9,6 C 8,9 C 7,2 C 99 % 1009,9 hPa 0,0 l/m 0 min 2 min 23 W/m 3,2 km/h (1 Bft) 100,00 %
25.12.2022 15:12 9,6 C 8,9 C 7,2 C 99 % 1010,0 hPa 0,0 l/m 0 min 0 min 21 W/m 6,4 km/h (2 Bft) 100,00 %
25.12.2022 15:14 9,6 C 8,9 C 7,2 C 99 % 1009,9 hPa 0,0 l/m 0 min 0 min 20 W/m 6,4 km/h (2 Bft) 97,87 %
25.12.2022 15:16 9,6 C 8,9 C 7,2 C 99 % 1009,9 hPa 0,0 l/m 0 min 0 min 18 W/m 6,4 km/h (2 Bft) 97,87 %
25.12.2022 15:18 9,6 C 8,9 C 7,2 C 99 % 1009,9 hPa 0,0 l/m 0 min 0 min 19 W/m 6,4 km/h (2 Bft) 97,87 %
25.12.2022 15:20 9,6 C 8,9 C 7,2 C 99 % 1009,9 hPa 0,0 l/m 0 min 0 min 18 W/m 3,2 km/h (1 Bft) 100,00 %
25.12.2022 15:22 9,6 C 8,9 C 7,2 C 99 % 1009,9 hPa 0,0 l/m 0 min 0 min 14 W/m 3,2 km/h (1 Bft) 100,00 %
25.12.2022 15:24 9,6 C 8,9 C 7,2 C 99 % 1010,0 hPa 0,0 l/m 0 min 0 min 12 W/m 3,2 km/h (1 Bft) 97,83 %
25.12.2022 15:26 9,6 C 8,9 C 7,2 C 99 % 1010,0 hPa 0,0 l/m 0 min 2 min 12 W/m 9,7 km/h (2 Bft) 97,87 %
25.12.2022 15:28 9,6 C 8,9 C 7,2 C 99 % 1010,0 hPa 0,0 l/m 0 min 2 min 11 W/m 6,4 km/h (2 Bft) 91,49 %
25.12.2022 15:30 9,6 C 8,9 C 7,2 C 99 % 1010,0 hPa 0,0 l/m 0 min 2 min 11 W/m 9,7 km/h (2 Bft) 95,74 %
25.12.2022 15:32 9,6 C 8,9 C 7,2 C 99 % 1009,9 hPa 0,2 l/m 0 min 2 min 10 W/m 12,9 km/h (3 Bft) 95,74 %
25.12.2022 15:34 9,6 C 8,9 C 7,2 C 99 % 1009,9 hPa 0,0 l/m 0 min 2 min 9 W/m 9,7 km/h (2 Bft) 93,62 %
25.12.2022 15:36 9,7 C 8,9 C 7,2 C 99 % 1009,9 hPa 0,0 l/m 0 min 0 min 8 W/m 6,4 km/h (2 Bft) 95,65 %
25.12.2022 15:38 9,6 C 8,9 C 7,2 C 99 % 1009,9 hPa 0,0 l/m 0 min 2 min 7 W/m 6,4 km/h (2 Bft) 95,74 %
25.12.2022 15:40 9,7 C 8,9 C 7,2 C 99 % 1009,8 hPa 0,0 l/m 0 min 2 min 7 W/m 6,4 km/h (2 Bft) 91,49 %
25.12.2022 15:42 9,7 C 8,9 C 7,2 C 99 % 1009,8 hPa 0,0 l/m 0 min 2 min 9 W/m 9,7 km/h (2 Bft) 95,74 %
25.12.2022 15:44 9,7 C 8,9 C 7,2 C 99 % 1009,7 hPa 0,0 l/m 0 min 2 min 8 W/m 16,1 km/h (3 Bft) 95,74 %
25.12.2022 15:46 9,7 C 8,9 C 7,2 C 99 % 1009,8 hPa 0,0 l/m 0 min 2 min 7 W/m 12,9 km/h (3 Bft) 95,74 %
25.12.2022 15:48 9,7 C 8,9 C 7,2 C 99 % 1009,8 hPa 0,0 l/m 0 min 2 min 10 W/m 6,4 km/h (2 Bft) 95,74 %
25.12.2022 15:50 9,7 C 8,9 C 7,2 C 99 % 1009,7 hPa 0,0 l/m 0 min 2 min 8 W/m 6,4 km/h (2 Bft) 97,83 %
25.12.2022 15:52 9,7 C 8,9 C 7,2 C 99 % 1009,8 hPa 0,0 l/m 0 min 2 min 7 W/m 6,4 km/h (2 Bft) 95,74 %
25.12.2022 15:54 9,7 C 8,9 C 7,2 C 99 % 1009,8 hPa 0,2 l/m 0 min 2 min 7 W/m 6,4 km/h (2 Bft) 95,74 %
25.12.2022 15:56 9,7 C 8,9 C 7,2 C 99 % 1009,8 hPa 0,0 l/m 0 min 2 min 7 W/m 9,7 km/h (2 Bft) 95,45 %
25.12.2022 15:58 9,7 C 8,9 C 7,2 C 99 % 1009,8 hPa 0,0 l/m 0 min 2 min 8 W/m 6,4 km/h (2 Bft) 95,74 %
25.12.2022 16:00 9,7 C 8,9 C 7,2 C 99 % 1009,7 hPa 0,0 l/m 0 min 2 min 10 W/m 6,4 km/h (2 Bft) 93,62 %
25.12.2022 16:02 9,7 C 8,9 C 7,2 C 99 % 1009,6 hPa 0,0 l/m 0 min 2 min 11 W/m 3,2 km/h (1 Bft) 95,74 %
25.12.2022 16:04 9,7 C 8,9 C 7,2 C 99 % 1009,7 hPa 0,0 l/m 0 min 0 min 8 W/m 3,2 km/h (1 Bft) 97,83 %
25.12.2022 16:06 9,7 C 8,9 C 7,2 C 99 % 1009,7 hPa 0,0 l/m 0 min 0 min 5 W/m 6,4 km/h (2 Bft) 94,92 %
25.12.2022 16:08 9,7 C 8,9 C 7,2 C 99 % 1009,7 hPa 0,0 l/m 0 min 0 min 5 W/m 3,2 km/h (1 Bft) 94,29 %
25.12.2022 16:10 9,7 C 8,9 C 7,2 C 99 % 1009,6 hPa 0,0 l/m 0 min 2 min 5 W/m 6,4 km/h (2 Bft) 95,74 %
25.12.2022 16:12 9,7 C 8,9 C 7,2 C 99 % 1009,5 hPa 0,0 l/m 0 min 2 min 5 W/m 6,4 km/h (2 Bft) 97,87 %
25.12.2022 16:14 9,7 C 8,9 C 7,2 C 99 % 1009,4 hPa 0,0 l/m 0 min 2 min 7 W/m 3,2 km/h (1 Bft) 95,74 %
25.12.2022 16:16 9,7 C 8,9 C 7,2 C 99 % 1009,4 hPa 0,0 l/m 0 min 2 min 7 W/m 6,4 km/h (2 Bft) 97,83 %
25.12.2022 16:18 9,7 C 8,9 C 7,2 C 99 % 1009,4 hPa 0,0 l/m 0 min 2 min 6 W/m 3,2 km/h (1 Bft) 100,00 %
25.12.2022 16:20 9,7 C 8,9 C 7,2 C 99 % 1009,4 hPa 0,0 l/m 0 min 0 min 5 W/m 6,4 km/h (2 Bft) 95,74 %
25.12.2022 16:22 9,7 C 8,9 C 7,2 C 99 % 1009,3 hPa 0,0 l/m 0 min 0 min 5 W/m 6,4 km/h (2 Bft) 93,62 %
25.12.2022 16:24 9,7 C 8,9 C 7,2 C 99 % 1009,3 hPa 0,0 l/m 0 min 0 min 0 W/m 12,9 km/h (3 Bft) 97,87 %
25.12.2022 16:26 9,7 C 8,9 C 7,2 C 99 % 1009,3 hPa 0,0 l/m 0 min 0 min 0 W/m 6,4 km/h (2 Bft) 95,74 %
25.12.2022 16:28 9,7 C 8,9 C 7,2 C 99 % 1009,3 hPa 0,0 l/m 0 min 0 min 0 W/m 6,4 km/h (2 Bft) 97,87 %
25.12.2022 16:30 9,7 C 8,9 C 7,2 C 99 % 1009,2 hPa 0,0 l/m 0 min 0 min 0 W/m 3,2 km/h (1 Bft) 97,83 %
25.12.2022 16:32 9,7 C 8,9 C 7,2 C 99 % 1009,2 hPa 0,0 l/m 0 min 0 min 0 W/m 3,2 km/h (1 Bft) 95,74 %
25.12.2022 16:34 9,7 C 8,9 C 7,2 C 99 % 1009,2 hPa 0,0 l/m 0 min 0 min 0 W/m 3,2 km/h (1 Bft) 97,87 %
25.12.2022 16:36 9,7 C 8,9 C 7,2 C 99 % 1009,2 hPa 0,0 l/m 0 min 0 min 0 W/m 3,2 km/h (1 Bft) 97,87 %
25.12.2022 16:38 9,7 C 8,9 C 7,2 C 99 % 1009,2 hPa 0,0 l/m 0 min 0 min 0 W/m 3,2 km/h (1 Bft) 93,62 %
25.12.2022 16:40 9,7 C 8,9 C 7,2 C 99 % 1009,2 hPa 0,0 l/m 0 min 0 min 0 W/m 6,4 km/h (2 Bft) 93,62 %
25.12.2022 16:42 9,7 C 9,4 C 7,2 C 99 % 1009,2 hPa 0,0 l/m 0 min 0 min 0 W/m 6,4 km/h (2 Bft) 97,83 %
25.12.2022 16:44 9,8 C 9,4 C 7,2 C 99 % 1009,1 hPa 0,0 l/m 0 min 0 min 0 W/m 6,4 km/h (2 Bft) 95,74 %
25.12.2022 16:46 9,8 C 9,4 C 7,2 C 99 % 1009,1 hPa 0,0 l/m 0 min 0 min 0 W/m 6,4 km/h (2 Bft) 97,87 %
25.12.2022 16:48 9,8 C 9,4 C 7,2 C 99 % 1009,1 hPa 0,0 l/m 0 min 0 min 0 W/m 3,2 km/h (1 Bft) 97,87 %
25.12.2022 16:50 9,8 C 9,4 C 7,2 C 99 % 1009,1 hPa 0,0 l/m 0 min 0 min 0 W/m 6,4 km/h (2 Bft) 93,62 %
25.12.2022 16:52 9,8 C 9,4 C 7,2 C 99 % 1009,1 hPa 0,0 l/m 0 min 0 min 0 W/m 3,2 km/h (1 Bft) 97,87 %
25.12.2022 16:54 9,8 C 9,4 C 7,2 C 99 % 1009,1 hPa 0,0 l/m 0 min 0 min 0 W/m 3,2 km/h (1 Bft) 100,00 %
25.12.2022 16:56 9,8 C 9,4 C 7,2 C 99 % 1009,1 hPa 0,0 l/m 0 min 0 min 0 W/m 6,4 km/h (2 Bft) 97,83 %
25.12.2022 16:58 9,8 C 9,4 C 7,2 C 99 % 1009,1 hPa 0,0 l/m 0 min 0 min 0 W/m 3,2 km/h (1 Bft) 97,87 %
25.12.2022 17:00 9,8 C 9,4 C 7,2 C 99 % 1009,1 hPa 0,0 l/m 0 min 0 min 0 W/m 6,4 km/h (2 Bft) 100,00 %
25.12.2022 17:02 9,8 C 9,4 C 7,2 C 99 % 1009,2 hPa 0,0 l/m 0 min 0 min 0 W/m 3,2 km/h (1 Bft) 97,87 %
25.12.2022 17:04 9,8 C 9,4 C 7,2 C 99 % 1009,1 hPa 0,0 l/m 0 min 0 min 0 W/m 3,2 km/h (1 Bft) 97,87 %
25.12.2022 17:06 9,8 C 9,4 C 7,2 C 99 % 1009,1 hPa 0,0 l/m 0 min 0 min 0 W/m 3,2 km/h (1 Bft) 100,00 %
25.12.2022 17:08 9,8 C 9,4 C 7,2 C 99 % 1009,1 hPa 0,0 l/m 0 min 0 min 0 W/m 3,2 km/h (1 Bft) 95,65 %
25.12.2022 17:10 9,8 C 9,4 C 7,2 C 99 % 1009,1 hPa 0,0 l/m 0 min 0 min 0 W/m 3,2 km/h (1 Bft) 100,00 %
25.12.2022 17:12 9,8 C 9,4 C 7,2 C 99 % 1009,1 hPa 0,0 l/m 0 min 0 min 0 W/m 3,2 km/h (1 Bft) 100,00 %
25.12.2022 17:14 9,8 C 9,4 C 7,2 C 99 % 1009,1 hPa 0,0 l/m 0 min 0 min 0 W/m 3,2 km/h (1 Bft) 97,87 %
25.12.2022 17:16 9,8 C 9,4 C 7,2 C 99 % 1009,1 hPa 0,0 l/m 0 min 0 min 0 W/m 3,2 km/h (1 Bft) 97,87 %
25.12.2022 17:18 9,8 C 9,4 C 7,2 C 99 % 1009,2 hPa 0,0 l/m 0 min 0 min 0 W/m 0,0 km/h (0 Bft) 100,00 %
25.12.2022 17:20 9,8 C 9,4 C 7,2 C 99 % 1009,2 hPa 0,0 l/m 0 min 0 min 0 W/m 3,2 km/h (1 Bft) 95,65 %
25.12.2022 17:22 9,8 C 9,4 C 7,2 C 99 % 1009,2 hPa 0,0 l/m 0 min 2 min 0 W/m 3,2 km/h (1 Bft) 97,87 %
25.12.2022 17:24 9,8 C 9,4 C 7,2 C 99 % 1009,2 hPa 0,0 l/m 0 min 0 min 0 W/m 3,2 km/h (1 Bft) 100,00 %
25.12.2022 17:26 9,8 C 9,4 C 7,2 C 99 % 1009,2 hPa 0,0 l/m 0 min 0 min 0 W/m 3,2 km/h (1 Bft) 97,87 %
25.12.2022 17:28 9,8 C 9,4 C 7,2 C 99 % 1009,2 hPa 0,0 l/m 0 min 0 min 0 W/m 0,0 km/h (0 Bft) 97,87 %
25.12.2022 17:30 9,8 C 9,4 C 7,2 C 99 % 1009,2 hPa 0,0 l/m 0 min 0 min 0 W/m 0,0 km/h (0 Bft) 97,87 %
25.12.2022 17:32 9,8 C 9,4 C 7,2 C 99 % 1009,2 hPa 0,0 l/m 0 min 0 min 0 W/m 0,0 km/h (0 Bft) 97,83 %
25.12.2022 17:34 9,8 C 9,4 C 7,2 C 99 % 1009,1 hPa 0,0 l/m 0 min 0 min 0 W/m 0,0 km/h (0 Bft) 97,87 %
25.12.2022 17:36 9,8 C 9,4 C 7,2 C 99 % 1009,2 hPa 0,0 l/m 0 min 0 min 0 W/m 0,0 km/h (0 Bft) 97,87 %
25.12.2022 17:38 9,8 C 9,4 C 7,2 C 99 % 1009,1 hPa 0,0 l/m 0 min 0 min 0 W/m 0,0 km/h (0 Bft) 93,62 %
25.12.2022 17:40 9,8 C 9,4 C 7,2 C 99 % 1009,2 hPa 0,0 l/m 0 min 0 min 0 W/m 0,0 km/h (0 Bft) 97,87 %
25.12.2022 17:42 9,8 C 9,4 C 7,2 C 99 % 1009,2 hPa 0,0 l/m 0 min 0 min 0 W/m 0,0 km/h (0 Bft) 97,87 %
25.12.2022 17:44 9,8 C 9,4 C 7,2 C 99 % 1009,3 hPa 0,0 l/m 0 min 0 min 0 W/m 3,2 km/h (1 Bft) 97,87 %
25.12.2022 17:46 9,8 C 9,4 C 7,2 C 99 % 1009,2 hPa 0,0 l/m 0 min 0 min 0 W/m 0,0 km/h (0 Bft) 95,65 %
25.12.2022 17:48 9,8 C 9,4 C 7,2 C 99 % 1009,2 hPa 0,0 l/m 0 min 0 min 0 W/m 0,0 km/h (0 Bft) 97,87 %
25.12.2022 17:50 9,8 C 9,4 C 7,2 C 99 % 1009,3 hPa 0,0 l/m 0 min 0 min 0 W/m 6,4 km/h (2 Bft) 95,74 %
25.12.2022 17:52 9,8 C 9,4 C 7,2 C 99 % 1009,2 hPa 0,0 l/m 0 min 0 min 0 W/m 3,2 km/h (1 Bft) 95,74 %
25.12.2022 17:54 9,8 C 9,4 C 7,2 C 99 % 1009,1 hPa 0,0 l/m 0 min 0 min 0 W/m 6,4 km/h (2 Bft) 93,62 %
25.12.2022 17:56 9,8 C 9,4 C 7,2 C 99 % 1009,1 hPa 0,0 l/m 0 min 0 min 0 W/m 3,2 km/h (1 Bft) 97,87 %
25.12.2022 17:58 9,8 C 9,4 C 7,2 C 99 % 1009,2 hPa 0,0 l/m 0 min 0 min 0 W/m 3,2 km/h (1 Bft) 100,00 %
25.12.2022 18:00 9,8 C 9,4 C 7,2 C 99 % 1009,1 hPa 0,0 l/m 0 min 0 min 0 W/m 3,2 km/h (1 Bft) 97,87 %
25.12.2022 18:02 9,8 C 9,4 C 7,2 C 99 % 1009,2 hPa 0,0 l/m 0 min 0 min 0 W/m 6,4 km/h (2 Bft) 97,87 %
25.12.2022 18:04 9,8 C 9,4 C 7,2 C 99 % 1009,2 hPa 0,0 l/m 0 min 0 min 0 W/m 3,2 km/h (1 Bft) 97,87 %
25.12.2022 18:08 9,8 C 9,4 C 7,2 C 99 % 1009,2 hPa 0,0 l/m 0 min 0 min 0 W/m 6,4 km/h (2 Bft) 97,75 %
25.12.2022 18:10 9,8 C 9,4 C 7,2 C 99 % 1009,2 hPa 0,0 l/m 0 min 0 min 0 W/m 6,4 km/h (2 Bft) 97,87 %
25.12.2022 18:12 9,8 C 9,4 C 7,2 C 99 % 1009,2 hPa 0,0 l/m 0 min 0 min 0 W/m 6,4 km/h (2 Bft) 97,83 %
25.12.2022 18:14 9,9 C 9,4 C 7,8 C 99 % 1009,2 hPa 0,0 l/m 0 min 0 min 0 W/m 12,9 km/h (3 Bft) 97,87 %
25.12.2022 18:16 9,9 C 9,4 C 7,8 C 99 % 1009,2 hPa 0,0 l/m 0 min 0 min 0 W/m 3,2 km/h (1 Bft) 95,74 %
25.12.2022 18:18 9,9 C 9,4 C 7,8 C 99 % 1009,2 hPa 0,0 l/m 0 min 0 min 0 W/m 3,2 km/h (1 Bft) 97,87 %
25.12.2022 18:20 9,9 C 9,4 C 7,8 C 99 % 1009,2 hPa 0,0 l/m 0 min 0 min 0 W/m 3,2 km/h (1 Bft) 95,74 %
25.12.2022 18:22 9,9 C 9,4 C 7,8 C 99 % 1009,2 hPa 0,0 l/m 0 min 0 min 0 W/m 6,4 km/h (2 Bft) 95,74 %
25.12.2022 18:24 9,9 C 9,4 C 7,8 C 99 % 1009,2 hPa 0,0 l/m 0 min 0 min 0 W/m 3,2 km/h (1 Bft) 97,87 %
25.12.2022 18:26 9,9 C 9,4 C 7,8 C 99 % 1009,1 hPa 0,0 l/m 0 min 0 min 0 W/m 3,2 km/h (1 Bft) 97,83 %
25.12.2022 18:28 9,9 C 9,4 C 7,8 C 99 % 1009,2 hPa 0,0 l/m 0 min 0 min 0 W/m 0,0 km/h (0 Bft) 97,87 %
25.12.2022 18:30 9,9 C 9,4 C 7,8 C 99 % 1009,2 hPa 0,0 l/m 0 min 0 min 0 W/m 3,2 km/h (1 Bft) 95,74 %
25.12.2022 18:32 9,9 C 9,4 C 7,2 C 99 % 1009,1 hPa 0,0 l/m 0 min 0 min 0 W/m 0,0 km/h (0 Bft) 95,74 %
25.12.2022 18:34 9,9 C 9,4 C 7,8 C 100 % 1009,2 hPa 0,0 l/m 0 min 0 min 0 W/m 0,0 km/h (0 Bft) 97,87 %
25.12.2022 18:36 9,9 C 9,4 C 7,8 C 100 % 1009,1 hPa 0,0 l/m 0 min 0 min 0 W/m 3,2 km/h (1 Bft) 97,87 %
25.12.2022 18:38 9,9 C 9,4 C 7,8 C 100 % 1009,2 hPa 0,0 l/m 0 min 0 min 0 W/m 3,2 km/h (1 Bft) 97,83 %
25.12.2022 18:40 9,9 C 9,4 C 7,8 C 100 % 1009,2 hPa 0,0 l/m 0 min 0 min 0 W/m 6,4 km/h (2 Bft) 97,87 %
25.12.2022 18:42 9,9 C 9,4 C 7,8 C 100 % 1009,2 hPa 0,0 l/m 0 min 0 min 0 W/m 3,2 km/h (1 Bft) 95,74 %
25.12.2022 18:44 9,9 C 9,4 C 7,8 C 100 % 1009,1 hPa 0,0 l/m 0 min 0 min 0 W/m 3,2 km/h (1 Bft) 95,74 %
25.12.2022 18:46 10,0 C 9,4 C 7,8 C 100 % 1009,1 hPa 0,0 l/m 0 min 2 min 0 W/m 3,2 km/h (1 Bft) 93,62 %
25.12.2022 18:48 10,0 C 9,4 C 7,8 C 100 % 1009,2 hPa 0,0 l/m 0 min 0 min 0 W/m 6,4 km/h (2 Bft) 100,00 %
25.12.2022 18:50 10,0 C 9,4 C 7,8 C 100 % 1009,1 hPa 0,0 l/m 0 min 0 min 0 W/m 3,2 km/h (1 Bft) 100,00 %
25.12.2022 18:52 10,0 C 9,4 C 7,8 C 100 % 1009,1 hPa 0,0 l/m 0 min 0 min 0 W/m 3,2 km/h (1 Bft) 100,00 %
25.12.2022 18:54 10,0 C 9,4 C 7,8 C 100 % 1009,2 hPa 0,0 l/m 0 min 0 min 0 W/m 12,9 km/h (3 Bft) 100,00 %
25.12.2022 18:56 10,1 C 10,0 C 7,8 C 100 % 1009,2 hPa 0,0 l/m 0 min 0 min 0 W/m 9,7 km/h (2 Bft) 100,00 %
25.12.2022 18:58 10,1 C 10,0 C 7,8 C 100 % 1009,1 hPa 0,0 l/m 0 min 2 min 0 W/m 6,4 km/h (2 Bft) 97,87 %
25.12.2022 19:00 10,1 C 10,0 C 7,8 C 100 % 1009,2 hPa 0,0 l/m 0 min 0 min 0 W/m 16,1 km/h (3 Bft) 97,87 %
25.12.2022 19:02 10,2 C 10,0 C 7,8 C 99 % 1009,2 hPa 0,0 l/m 0 min 0 min 0 W/m 19,3 km/h (3 Bft) 97,87 %
25.12.2022 19:04 10,2 C 10,0 C 7,8 C 99 % 1009,2 hPa 0,0 l/m 0 min 2 min 0 W/m 16,1 km/h (3 Bft) 97,83 %
25.12.2022 19:06 10,2 C 10,0 C 7,8 C 99 % 1009,3 hPa 0,0 l/m 0 min 2 min 0 W/m 9,7 km/h (2 Bft) 98,31 %
25.12.2022 19:08 10,2 C 10,0 C 7,8 C 99 % 1009,3 hPa 0,0 l/m 0 min 2 min 0 W/m 12,9 km/h (3 Bft) 97,14 %
25.12.2022 19:10 10,3 C 10,0 C 7,8 C 99 % 1009,3 hPa 0,2 l/m 0 min 0 min 0 W/m 16,1 km/h (3 Bft) 97,87 %
25.12.2022 19:12 10,3 C 10,0 C 7,8 C 100 % 1009,3 hPa 0,0 l/m 0 min 2 min 0 W/m 16,1 km/h (3 Bft) 95,74 %
25.12.2022 19:14 10,3 C 10,0 C 7,8 C 100 % 1009,2 hPa 0,0 l/m 0 min 2 min 0 W/m 9,7 km/h (2 Bft) 95,74 %
25.12.2022 19:16 10,4 C 10,0 C 7,8 C 100 % 1009,2 hPa 0,0 l/m 0 min 2 min 0 W/m 12,9 km/h (3 Bft) 95,65 %
25.12.2022 19:18 10,4 C 10,0 C 7,8 C 100 % 1009,2 hPa 0,0 l/m 0 min 2 min 0 W/m 12,9 km/h (3 Bft) 97,87 %
25.12.2022 19:20 10,4 C 10,0 C 7,8 C 100 % 1009,1 hPa 0,0 l/m 0 min 2 min 0 W/m 12,9 km/h (3 Bft) 95,74 %
25.12.2022 19:22 10,4 C 10,0 C 7,8 C 100 % 1009,2 hPa 0,0 l/m 0 min 2 min 0 W/m 12,9 km/h (3 Bft) 97,87 %
25.12.2022 19:24 10,5 C 10,0 C 7,8 C 99 % 1009,2 hPa 0,0 l/m 0 min 2 min 0 W/m 9,7 km/h (2 Bft) 91,49 %
25.12.2022 19:26 10,5 C 10,6 C 7,8 C 99 % 1009,2 hPa 0,0 l/m 0 min 2 min 0 W/m 12,9 km/h (3 Bft) 95,74 %
25.12.2022 19:28 10,6 C 10,6 C 7,8 C 99 % 1009,1 hPa 0,0 l/m 0 min 2 min 0 W/m 16,1 km/h (3 Bft) 95,65 %
25.12.2022 19:30 10,6 C 10,6 C 7,8 C 100 % 1009,1 hPa 0,0 l/m 0 min 2 min 0 W/m 12,9 km/h (3 Bft) 95,74 %
25.12.2022 19:32 10,7 C 10,6 C 7,8 C 100 % 1009,1 hPa 0,0 l/m 0 min 2 min 0 W/m 12,9 km/h (3 Bft) 93,62 %
25.12.2022 19:34 10,7 C 10,6 C 7,8 C 100 % 1009,1 hPa 0,0 l/m 0 min 2 min 0 W/m 16,1 km/h (3 Bft) 93,62 %
25.12.2022 19:36 10,7 C 10,6 C 7,8 C 100 % 1009,1 hPa 0,0 l/m 0 min 2 min 0 W/m 12,9 km/h (3 Bft) 93,62 %
25.12.2022 19:38 10,7 C 10,6 C 7,8 C 100 % 1009,1 hPa 0,0 l/m 0 min 0 min 0 W/m 12,9 km/h (3 Bft) 95,74 %
25.12.2022 19:40 10,8 C 10,6 C 7,8 C 99 % 1009,1 hPa 0,0 l/m 0 min 0 min 0 W/m 12,9 km/h (3 Bft) 95,74 %
25.12.2022 19:42 10,8 C 10,6 C 7,8 C 99 % 1009,1 hPa 0,0 l/m 0 min 0 min 0 W/m 9,7 km/h (2 Bft) 95,65 %
25.12.2022 19:44 10,8 C 10,6 C 7,8 C 99 % 1009,1 hPa 0,0 l/m 0 min 0 min 0 W/m 6,4 km/h (2 Bft) 95,74 %
25.12.2022 19:46 10,8 C 10,6 C 7,8 C 99 % 1009,1 hPa 0,0 l/m 0 min 0 min 0 W/m 9,7 km/h (2 Bft) 95,74 %
25.12.2022 19:48 10,8 C 10,6 C 7,8 C 99 % 1009,1 hPa 0,0 l/m 0 min 0 min 0 W/m 25,7 km/h (4 Bft) 95,74 %
25.12.2022 19:50 10,8 C 10,6 C 7,8 C 99 % 1009,2 hPa 0,0 l/m 0 min 0 min 0 W/m 12,9 km/h (3 Bft) 95,74 %
25.12.2022 19:52 10,8 C 10,6 C 8,3 C 99 % 1009,3 hPa 0,0 l/m 0 min 0 min 0 W/m 6,4 km/h (2 Bft) 97,87 %
25.12.2022 19:54 10,8 C 10,6 C 8,3 C 99 % 1009,3 hPa 0,0 l/m 0 min 0 min 0 W/m 9,7 km/h (2 Bft) 95,74 %
25.12.2022 19:56 10,8 C 10,6 C 7,8 C 99 % 1009,3 hPa 0,0 l/m 0 min 0 min 0 W/m 3,2 km/h (1 Bft) 100,00 %
25.12.2022 19:58 10,8 C 10,6 C 7,8 C 99 % 1009,3 hPa 0,0 l/m 0 min 0 min 0 W/m 6,4 km/h (2 Bft) 97,87 %
25.12.2022 20:00 10,8 C 10,6 C 7,8 C 99 % 1009,3 hPa 0,0 l/m 0 min 0 min 0 W/m 9,7 km/h (2 Bft) 100,00 %
25.12.2022 20:02 10,8 C 10,6 C 7,8 C 99 % 1009,3 hPa 0,0 l/m 0 min 0 min 0 W/m 6,4 km/h (2 Bft) 100,00 %
25.12.2022 20:04 10,8 C 10,6 C 7,8 C 99 % 1009,4 hPa 0,0 l/m 0 min 0 min 0 W/m 6,4 km/h (2 Bft) 97,87 %
25.12.2022 20:06 10,8 C 10,6 C 7,8 C 99 % 1009,4 hPa 0,0 l/m 0 min 0 min 0 W/m 6,4 km/h (2 Bft) 98,28 %
25.12.2022 20:08 10,8 C 10,6 C 7,8 C 99 % 1009,4 hPa 0,0 l/m 0 min 0 min 0 W/m 6,4 km/h (2 Bft) 100,00 %
25.12.2022 20:10 10,8 C 10,6 C 7,8 C 99 % 1009,5 hPa 0,0 l/m 0 min 0 min 0 W/m 6,4 km/h (2 Bft) 100,00 %
25.12.2022 20:12 10,8 C 10,6 C 7,8 C 99 % 1009,4 hPa 0,0 l/m 0 min 2 min 0 W/m 6,4 km/h (2 Bft) 100,00 %
25.12.2022 20:14 10,9 C 10,6 C 8,3 C 99 % 1009,5 hPa 0,0 l/m 0 min 2 min 0 W/m 32,2 km/h (5 Bft) 100,00 %
25.12.2022 20:16 10,9 C 10,6 C 8,3 C 99 % 1009,4 hPa 0,0 l/m 0 min 2 min 0 W/m 19,3 km/h (3 Bft) 97,87 %
25.12.2022 20:18 10,9 C 10,6 C 8,3 C 99 % 1009,4 hPa 0,0 l/m 0 min 2 min 0 W/m 16,1 km/h (3 Bft) 97,87 %
25.12.2022 20:20 10,9 C 10,6 C 8,3 C 99 % 1009,4 hPa 0,0 l/m 0 min 2 min 0 W/m 12,9 km/h (3 Bft) 100,00 %
25.12.2022 20:22 10,9 C 10,6 C 8,3 C 99 % 1009,5 hPa 0,2 l/m 0 min 2 min 0 W/m 9,7 km/h (2 Bft) 100,00 %
25.12.2022 20:24 10,9 C 10,0 C 8,3 C 98 % 1009,5 hPa 0,0 l/m 0 min 2 min 0 W/m 6,4 km/h (2 Bft) 100,00 %
25.12.2022 20:26 11,0 C 10,0 C 8,3 C 98 % 1009,6 hPa 0,0 l/m 0 min 0 min 0 W/m 16,1 km/h (3 Bft) 100,00 %
25.12.2022 20:28 11,0 C 10,0 C 8,3 C 98 % 1009,6 hPa 0,0 l/m 0 min 0 min 0 W/m 12,9 km/h (3 Bft) 95,74 %
25.12.2022 20:30 10,9 C 10,0 C 8,3 C 98 % 1009,6 hPa 0,0 l/m 0 min 0 min 0 W/m 19,3 km/h (3 Bft) 97,87 %
25.12.2022 20:32 11,0 C 10,0 C 8,3 C 98 % 1009,5 hPa 0,0 l/m 0 min 0 min 0 W/m 12,9 km/h (3 Bft) 97,87 %
25.12.2022 20:34 11,0 C 10,0 C 8,3 C 98 % 1009,5 hPa 0,0 l/m 0 min 0 min 0 W/m 12,9 km/h (3 Bft) 97,96 %
25.12.2022 20:36 11,0 C 10,0 C 8,3 C 98 % 1009,6 hPa 0,0 l/m 0 min 0 min 0 W/m 12,9 km/h (3 Bft) 97,87 %
25.12.2022 20:38 11,0 C 10,0 C 8,3 C 98 % 1009,6 hPa 0,0 l/m 0 min 0 min 0 W/m 9,7 km/h (2 Bft) 97,96 %
25.12.2022 20:40 11,0 C 10,0 C 8,3 C 98 % 1009,7 hPa 0,0 l/m 0 min 0 min 0 W/m 12,9 km/h (3 Bft) 95,74 %
25.12.2022 20:42 11,1 C 10,6 C 8,3 C 98 % 1009,8 hPa 0,0 l/m 0 min 0 min 0 W/m 19,3 km/h (3 Bft) 97,87 %
25.12.2022 20:44 11,1 C 10,6 C 8,3 C 98 % 1009,7 hPa 0,0 l/m 0 min 0 min 0 W/m 9,7 km/h (2 Bft) 97,87 %
25.12.2022 20:46 11,0 C 10,0 C 8,3 C 98 % 1009,6 hPa 0,0 l/m 0 min 0 min 0 W/m 16,1 km/h (3 Bft) 95,65 %
25.12.2022 20:48 11,1 C 10,0 C 8,3 C 98 % 1009,6 hPa 0,0 l/m 0 min 0 min 0 W/m 19,3 km/h (3 Bft) 95,74 %
25.12.2022 20:50 11,0 C 10,0 C 8,3 C 98 % 1009,5 hPa 0,0 l/m 0 min 2 min 0 W/m 16,1 km/h (3 Bft) 97,87 %
25.12.2022 20:52 11,1 C 10,6 C 8,3 C 98 % 1009,4 hPa 0,0 l/m 0 min 2 min 0 W/m 19,3 km/h (3 Bft) 97,87 %
25.12.2022 20:54 11,1 C 10,6 C 8,3 C 98 % 1009,3 hPa 0,0 l/m 0 min 2 min 0 W/m 12,9 km/h (3 Bft) 97,87 %
25.12.2022 20:56 11,1 C 10,0 C 8,3 C 98 % 1009,3 hPa 0,0 l/m 0 min 2 min 0 W/m 6,4 km/h (2 Bft) 97,87 %
25.12.2022 20:58 11,1 C 10,0 C 8,3 C 98 % 1009,4 hPa 0,0 l/m 0 min 2 min 0 W/m 6,4 km/h (2 Bft) 91,49 %
25.12.2022 21:00 11,1 C 10,0 C 8,3 C 98 % 1009,3 hPa 0,0 l/m 0 min 0 min 0 W/m 12,9 km/h (3 Bft) 97,83 %
25.12.2022 21:02 11,1 C 10,0 C 8,3 C 98 % 1009,4 hPa 0,0 l/m 0 min 0 min 0 W/m 6,4 km/h (2 Bft) 95,74 %
25.12.2022 21:04 11,0 C 10,0 C 8,3 C 98 % 1009,4 hPa 0,0 l/m 0 min 0 min 0 W/m 12,9 km/h (3 Bft) 97,87 %
25.12.2022 21:06 11,1 C 10,0 C 8,3 C 98 % 1009,5 hPa 0,0 l/m 0 min 0 min 0 W/m 12,9 km/h (3 Bft) 97,87 %
25.12.2022 21:08 11,1 C 10,6 C 8,3 C 98 % 1009,5 hPa 0,0 l/m 0 min 0 min 0 W/m 16,1 km/h (3 Bft) 97,14 %
25.12.2022 21:10 11,1 C 10,6 C 8,3 C 98 % 1009,5 hPa 0,0 l/m 0 min 0 min 0 W/m 16,1 km/h (3 Bft) 95,74 %
25.12.2022 21:12 11,1 C 10,6 C 8,3 C 98 % 1009,6 hPa 0,0 l/m 0 min 0 min 0 W/m 16,1 km/h (3 Bft) 97,87 %
25.12.2022 21:14 11,1 C 10,6 C 8,3 C 98 % 1009,6 hPa 0,0 l/m 0 min 0 min 0 W/m 12,9 km/h (3 Bft) 97,87 %
25.12.2022 21:16 11,1 C 10,6 C 8,3 C 98 % 1009,6 hPa 0,0 l/m 0 min 0 min 0 W/m 6,4 km/h (2 Bft) 97,83 %
25.12.2022 21:18 11,1 C 10,6 C 8,3 C 98 % 1009,5 hPa 0,0 l/m 0 min 0 min 0 W/m 12,9 km/h (3 Bft) 97,87 %
25.12.2022 21:20 11,1 C 10,6 C 8,3 C 98 % 1009,5 hPa 0,0 l/m 0 min 0 min 0 W/m 12,9 km/h (3 Bft) 97,87 %
25.12.2022 21:22 11,1 C 10,6 C 8,3 C 98 % 1009,4 hPa 0,0 l/m 0 min 0 min 0 W/m 12,9 km/h (3 Bft) 97,87 %
25.12.2022 21:24 11,1 C 10,6 C 8,3 C 98 % 1009,5 hPa 0,0 l/m 0 min 0 min 0 W/m 6,4 km/h (2 Bft) 97,87 %
25.12.2022 21:26 11,1 C 10,0 C 8,3 C 98 % 1009,4 hPa 0,0 l/m 0 min 0 min 0 W/m 6,4 km/h (2 Bft) 97,87 %
25.12.2022 21:28 11,1 C 10,0 C 8,3 C 98 % 1009,4 hPa 0,0 l/m 0 min 0 min 0 W/m 9,7 km/h (2 Bft) 91,49 %
25.12.2022 21:30 11,0 C 10,0 C 8,3 C 98 % 1009,4 hPa 0,0 l/m 0 min 0 min 0 W/m 6,4 km/h (2 Bft) 97,83 %
25.12.2022 21:32 11,0 C 10,0 C 8,3 C 98 % 1009,3 hPa 0,0 l/m 0 min 0 min 0 W/m 3,2 km/h (1 Bft) 97,87 %
25.12.2022 21:34 11,0 C 10,0 C 8,3 C 98 % 1009,4 hPa 0,0 l/m 0 min 0 min 0 W/m 3,2 km/h (1 Bft) 95,74 %
25.12.2022 21:36 10,9 C 10,0 C 8,3 C 98 % 1009,5 hPa 0,0 l/m 0 min 0 min 0 W/m 3,2 km/h (1 Bft) 97,87 %
25.12.2022 21:38 10,9 C 10,0 C 8,3 C 98 % 1009,5 hPa 0,0 l/m 0 min 0 min 0 W/m 6,4 km/h (2 Bft) 95,74 %
25.12.2022 21:40 10,9 C 10,0 C 8,3 C 98 % 1009,6 hPa 0,0 l/m 0 min 0 min 0 W/m 3,2 km/h (1 Bft) 97,87 %
25.12.2022 21:42 10,9 C 10,0 C 8,3 C 98 % 1009,6 hPa 0,0 l/m 0 min 0 min 0 W/m 6,4 km/h (2 Bft) 97,83 %
25.12.2022 21:44 10,9 C 10,0 C 8,3 C 98 % 1009,6 hPa 0,0 l/m 0 min 0 min 0 W/m 6,4 km/h (2 Bft) 97,87 %
25.12.2022 21:46 10,9 C 10,0 C 8,3 C 98 % 1009,5 hPa 0,0 l/m 0 min 0 min 0 W/m 3,2 km/h (1 Bft) 95,74 %
25.12.2022 21:48 10,9 C 10,0 C 8,3 C 98 % 1009,5 hPa 0,0 l/m 0 min 0 min 0 W/m 0,0 km/h (0 Bft) 97,87 %
25.12.2022 21:50 10,9 C 10,0 C 8,3 C 98 % 1009,5 hPa 0,0 l/m 0 min 0 min 0 W/m 0,0 km/h (0 Bft) 97,87 %
25.12.2022 21:52 10,9 C 10,0 C 8,3 C 98 % 1009,4 hPa 0,0 l/m 0 min 0 min 0 W/m 6,4 km/h (2 Bft) 100,00 %
25.12.2022 21:54 10,9 C 10,0 C 8,3 C 98 % 1009,5 hPa 0,0 l/m 0 min 0 min 0 W/m 3,2 km/h (1 Bft) 100,00 %
25.12.2022 21:56 10,9 C 10,0 C 7,8 C 98 % 1009,4 hPa 0,0 l/m 0 min 0 min 0 W/m 3,2 km/h (1 Bft) 100,00 %
25.12.2022 21:58 10,9 C 10,0 C 7,8 C 98 % 1009,4 hPa 0,0 l/m 0 min 0 min 0 W/m 3,2 km/h (1 Bft) 97,87 %
25.12.2022 22:00 10,9 C 10,0 C 7,8 C 98 % 1009,4 hPa 0,0 l/m 0 min 0 min 0 W/m 3,2 km/h (1 Bft) 95,74 %
25.12.2022 22:02 10,9 C 10,0 C 7,8 C 98 % 1009,4 hPa 0,0 l/m 0 min 0 min 0 W/m 6,4 km/h (2 Bft) 97,87 %
25.12.2022 22:04 10,9 C 10,0 C 7,8 C 98 % 1009,3 hPa 0,0 l/m 0 min 0 min 0 W/m 3,2 km/h (1 Bft) 98,18 %
25.12.2022 22:06 10,9 C 10,0 C 7,8 C 98 % 1009,4 hPa 0,0 l/m 0 min 0 min 0 W/m 3,2 km/h (1 Bft) 96,55 %
25.12.2022 22:08 10,8 C 10,0 C 7,8 C 98 % 1009,5 hPa 0,0 l/m 0 min 0 min 0 W/m 9,7 km/h (2 Bft) 94,29 %
25.12.2022 22:10 10,8 C 10,0 C 7,8 C 98 % 1009,5 hPa 0,0 l/m 0 min 2 min 0 W/m 6,4 km/h (2 Bft) 97,87 %
25.12.2022 22:12 10,8 C 10,0 C 7,8 C 98 % 1009,5 hPa 0,2 l/m 0 min 2 min 0 W/m 9,7 km/h (2 Bft) 97,87 %
25.12.2022 22:14 10,8 C 10,0 C 7,8 C 98 % 1009,5 hPa 0,0 l/m 0 min 2 min 0 W/m 3,2 km/h (1 Bft) 97,87 %
25.12.2022 22:16 10,8 C 10,0 C 7,8 C 98 % 1009,7 hPa 0,0 l/m 0 min 2 min 0 W/m 3,2 km/h (1 Bft) 95,74 %
25.12.2022 22:18 10,8 C 10,0 C 7,8 C 98 % 1009,7 hPa 0,2 l/m 0 min 2 min 0 W/m 12,9 km/h (3 Bft) 97,87 %
25.12.2022 22:20 10,8 C 10,0 C 8,3 C 98 % 1009,6 hPa 0,0 l/m 0 min 2 min 0 W/m 3,2 km/h (1 Bft) 97,83 %
25.12.2022 22:22 10,8 C 10,0 C 7,8 C 98 % 1009,4 hPa 0,0 l/m 0 min 2 min 0 W/m 6,4 km/h (2 Bft) 95,74 %
25.12.2022 22:24 10,8 C 10,0 C 8,3 C 98 % 1009,7 hPa 0,2 l/m 0 min 2 min 0 W/m 6,4 km/h (2 Bft) 97,87 %
25.12.2022 22:26 10,8 C 10,0 C 8,3 C 98 % 1009,8 hPa 0,8 l/m 0 min 2 min 0 W/m 12,9 km/h (3 Bft) 95,74 %
25.12.2022 22:28 10,8 C 10,0 C 8,3 C 98 % 1009,9 hPa 0,6 l/m 0 min 2 min 0 W/m 9,7 km/h (2 Bft) 97,87 %
25.12.2022 22:30 10,9 C 10,0 C 8,3 C 98 % 1010,0 hPa 0,4 l/m 0 min 2 min 0 W/m 16,1 km/h (3 Bft) 97,87 %
25.12.2022 22:32 10,9 C 10,0 C 8,3 C 98 % 1010,0 hPa 0,4 l/m 0 min 2 min 0 W/m 22,5 km/h (4 Bft) 95,65 %
25.12.2022 22:34 10,9 C 10,0 C 8,3 C 98 % 1010,0 hPa 0,4 l/m 0 min 2 min 0 W/m 6,4 km/h (2 Bft) 97,87 %
25.12.2022 22:36 10,9 C 10,0 C 8,3 C 98 % 1010,0 hPa 0,2 l/m 0 min 2 min 0 W/m 12,9 km/h (3 Bft) 97,87 %
25.12.2022 22:38 10,9 C 10,0 C 8,3 C 98 % 1010,0 hPa 0,4 l/m 0 min 2 min 0 W/m 19,3 km/h (3 Bft) 97,87 %
25.12.2022 22:40 11,0 C 10,0 C 8,3 C 98 % 1010,2 hPa 0,2 l/m 0 min 2 min 0 W/m 19,3 km/h (3 Bft) 97,87 %
25.12.2022 22:42 11,0 C 10,0 C 8,3 C 98 % 1010,3 hPa 0,4 l/m 0 min 2 min 0 W/m 19,3 km/h (3 Bft) 97,87 %
25.12.2022 22:44 11,0 C 10,0 C 8,3 C 98 % 1010,2 hPa 0,6 l/m 0 min 2 min 0 W/m 19,3 km/h (3 Bft) 93,62 %
25.12.2022 22:46 11,0 C 10,0 C 8,3 C 98 % 1010,3 hPa 0,2 l/m 0 min 2 min 0 W/m 19,3 km/h (3 Bft) 97,83 %
25.12.2022 22:48 11,0 C 10,0 C 8,3 C 98 % 1010,2 hPa 0,4 l/m 0 min 2 min 0 W/m 12,9 km/h (3 Bft) 97,87 %
25.12.2022 22:50 11,0 C 10,0 C 8,3 C 98 % 1010,2 hPa 0,2 l/m 0 min 2 min 0 W/m 22,5 km/h (4 Bft) 97,87 %
25.12.2022 22:52 11,0 C 10,0 C 8,3 C 98 % 1010,2 hPa 0,6 l/m 0 min 2 min 0 W/m 12,9 km/h (3 Bft) 97,87 %
25.12.2022 22:54 11,0 C 10,0 C 8,3 C 98 % 1010,2 hPa 0,2 l/m 0 min 2 min 0 W/m 19,3 km/h (3 Bft) 97,87 %
25.12.2022 22:56 11,0 C 10,0 C 8,3 C 98 % 1010,2 hPa 0,2 l/m 0 min 2 min 0 W/m 16,1 km/h (3 Bft) 95,74 %
25.12.2022 22:58 11,0 C 10,0 C 8,3 C 98 % 1010,2 hPa 0,2 l/m 0 min 2 min 0 W/m 12,9 km/h (3 Bft) 97,83 %
25.12.2022 23:00 10,9 C 10,0 C 8,3 C 98 % 1010,2 hPa 0,0 l/m 0 min 2 min 0 W/m 6,4 km/h (2 Bft) 100,00 %
25.12.2022 23:02 10,9 C 10,0 C 8,3 C 98 % 1010,3 hPa 0,4 l/m 0 min 2 min 0 W/m 9,7 km/h (2 Bft) 95,74 %
25.12.2022 23:04 10,9 C 10,0 C 8,3 C 98 % 1010,3 hPa 0,4 l/m 0 min 2 min 0 W/m 6,4 km/h (2 Bft) 95,74 %
25.12.2022 23:06 10,9 C 10,0 C 8,3 C 98 % 1010,3 hPa 0,0 l/m 0 min 2 min 0 W/m 9,7 km/h (2 Bft) 97,87 %
25.12.2022 23:08 10,9 C 10,0 C 8,3 C 98 % 1010,3 hPa 0,0 l/m 0 min 2 min 0 W/m 12,9 km/h (3 Bft) 91,49 %
25.12.2022 23:10 10,9 C 10,0 C 8,3 C 98 % 1010,3 hPa 0,2 l/m 0 min 2 min 0 W/m 9,7 km/h (2 Bft) 93,62 %
25.12.2022 23:12 10,9 C 10,0 C 8,3 C 98 % 1010,2 hPa 0,0 l/m 0 min 2 min 0 W/m 9,7 km/h (2 Bft) 95,65 %
25.12.2022 23:14 10,9 C 10,0 C 8,3 C 98 % 1010,1 hPa 0,0 l/m 0 min 2 min 0 W/m 12,9 km/h (3 Bft) 93,62 %
25.12.2022 23:16 10,9 C 10,0 C 8,3 C 99 % 1010,2 hPa 0,0 l/m 0 min 0 min 0 W/m 9,7 km/h (2 Bft) 95,74 %
25.12.2022 23:18 10,9 C 10,0 C 8,3 C 99 % 1010,1 hPa 0,0 l/m 0 min 0 min 0 W/m 6,4 km/h (2 Bft) 95,74 %
25.12.2022 23:20 10,9 C 10,0 C 8,3 C 99 % 1010,3 hPa 0,0 l/m 0 min 2 min 0 W/m 12,9 km/h (3 Bft) 93,62 %
25.12.2022 23:22 10,9 C 10,0 C 8,3 C 99 % 1010,3 hPa 0,0 l/m 0 min 0 min 0 W/m 12,9 km/h (3 Bft) 95,74 %
25.12.2022 23:24 10,9 C 10,0 C 8,3 C 99 % 1010,3 hPa 0,0 l/m 0 min 0 min 0 W/m 6,4 km/h (2 Bft) 93,48 %
25.12.2022 23:26 10,9 C 10,0 C 8,3 C 99 % 1010,3 hPa 0,0 l/m 0 min 0 min 0 W/m 3,2 km/h (1 Bft) 93,62 %
25.12.2022 23:28 10,9 C 10,0 C 8,3 C 99 % 1010,3 hPa 0,0 l/m 0 min 0 min 0 W/m 3,2 km/h (1 Bft) 95,74 %
25.12.2022 23:30 10,9 C 10,0 C 8,3 C 99 % 1010,3 hPa 0,0 l/m 0 min 2 min 0 W/m 6,4 km/h (2 Bft) 95,74 %
25.12.2022 23:32 10,9 C 10,0 C 8,3 C 99 % 1010,4 hPa 0,0 l/m 0 min 2 min 0 W/m 3,2 km/h (1 Bft) 93,62 %
25.12.2022 23:34 10,8 C 10,0 C 8,3 C 99 % 1010,5 hPa 0,0 l/m 0 min 0 min 0 W/m 6,4 km/h (2 Bft) 95,74 %
25.12.2022 23:36 10,8 C 10,0 C 8,3 C 99 % 1010,4 hPa 0,0 l/m 0 min 2 min 0 W/m 12,9 km/h (3 Bft) 93,62 %
25.12.2022 23:38 10,9 C 10,0 C 8,3 C 99 % 1010,3 hPa 0,0 l/m 0 min 0 min 0 W/m 3,2 km/h (1 Bft) 89,13 %
25.12.2022 23:40 10,8 C 10,0 C 8,3 C 99 % 1010,4 hPa 0,0 l/m 0 min 0 min 0 W/m 3,2 km/h (1 Bft) 95,74 %
25.12.2022 23:42 10,8 C 10,0 C 8,3 C 99 % 1010,4 hPa 0,0 l/m 0 min 0 min 0 W/m 6,4 km/h (2 Bft) 95,74 %
25.12.2022 23:44 10,8 C 10,0 C 8,3 C 99 % 1010,3 hPa 0,0 l/m 0 min 0 min 0 W/m 12,9 km/h (3 Bft) 93,62 %
25.12.2022 23:46 10,8 C 10,0 C 8,3 C 99 % 1010,4 hPa 0,0 l/m 0 min 0 min 0 W/m 19,3 km/h (3 Bft) 95,74 %
25.12.2022 23:48 10,8 C 10,0 C 8,3 C 99 % 1010,5 hPa 0,0 l/m 0 min 0 min 0 W/m 6,4 km/h (2 Bft) 95,74 %
25.12.2022 23:50 10,8 C 9,4 C 8,3 C 99 % 1010,5 hPa 0,0 l/m 0 min 0 min 0 W/m 12,9 km/h (3 Bft) 97,83 %
25.12.2022 23:52 10,8 C 10,0 C 8,3 C 99 % 1010,5 hPa 0,0 l/m 0 min 0 min 0 W/m 6,4 km/h (2 Bft) 100,00 %
25.12.2022 23:54 10,8 C 9,4 C 8,3 C 99 % 1010,4 hPa 0,0 l/m 0 min 0 min 0 W/m 3,2 km/h (1 Bft) 97,87 %
25.12.2022 23:56 10,7 C 10,0 C 8,3 C 99 % 1010,4 hPa 0,0 l/m 0 min 0 min 0 W/m 6,4 km/h (2 Bft) 97,87 %
25.12.2022 23:58 10,7 C 9,4 C 8,3 C 99 % 1010,5 hPa 0,0 l/m 0 min 0 min 0 W/m 3,2 km/h (1 Bft) 100,00 %
_ Min-Zeit 00:54 00:08 00:30 00:00 16:44 - - - - 00:14 10:24
Minimum _ 6,9 C 6,1 C 3,9 C 96 % 1009,1 hPa - - - - 0,0 km/h (0 Bft) 37,50 %
_ Max-Zeit 20:42 19:26 19:52 18:34 03:32 22:26 09:00 12:08 12:22 20:14 00:40
Maximum _ 11,1 C 10,6 C 8,3 C 100 % 1015,8 hPa 0,8 l/m 2 min 4 min 56 W/m 32,2 km/h
S-SO (5 Bft)
100,00 %
Durchschnitt _ 9,1 C 8,5 C 6,4 C 98 % 1012,2 hPa #17,6 l/m #4 min. #6:44 h 16 W/m 7,0 km/h (2 Bft) 96,75 %
© 2022 W. Hausmann